Observation data for McCamey on 07/20/2019      Previous  Date       Current Mesonet Observations  Soil Data  Daily Summary Page  Observations in Plain Language
KMC4 200500Z 13007KT 30/14 A2994 RMK A01 T02970137  RH  038%=      5-min Rain = 0
KMC4 200501Z 13007KT 30/14 A2994 RMK A01 T02960136  RH  038%=      5-min Rain = 0
KMC4 200502Z 13006KT 30/14 A2994 RMK A01 T02970137  RH  037%=      5-min Rain = 0
KMC4 200503Z 13006KT 30/14 A2994 RMK A01 T02970137  RH  037%=      5-min Rain = 0
KMC4 200504Z 13006KT 30/14 A2994 RMK A01 T02970137  RH  037%=      5-min Rain = 0
KMC4 200505Z 13006KT 30/14 A2994 RMK A01 T02970137  RH  038%=      5-min Rain = 0
KMC4 200506Z 13007KT 30/14 A2994 RMK A01 T02960137  RH  038%=      5-min Rain = 0
KMC4 200507Z 13006KT 30/14 A2994 RMK A01 T02960137  RH  038%=      5-min Rain = 0
KMC4 200508Z 12006KT 30/14 A2994 RMK A01 T02970137  RH  038%=      5-min Rain = 0
KMC4 200509Z 14006KT 30/14 A2994 RMK A01 T02960137  RH  038%=      5-min Rain = 0
KMC4 200510Z 14007KT 30/14 A2994 RMK A01 T02960137  RH  038%=      5-min Rain = 0
KMC4 200511Z 14006KT 30/14 A2994 RMK A01 T02960137  RH  038%=      5-min Rain = 0
KMC4 200512Z 13006KT 30/14 A2994 RMK A01 T02960137  RH  038%=      5-min Rain = 0
KMC4 200513Z 14007KT 30/14 A2994 RMK A01 T02960137  RH  038%=      5-min Rain = 0
KMC4 200514Z 14007KT 30/14 A2994 RMK A01 T02960137  RH  038%=      5-min Rain = 0
KMC4 200515Z 14007KT 30/14 A2994 RMK A01 T02970137  RH  038%=      5-min Rain = 0
KMC4 200516Z 15006KT 30/14 A2994 RMK A01 T02970137  RH  038%=      5-min Rain = 0
KMC4 200517Z 13006KT 30/14 A2994 RMK A01 T02980137  RH  037%=      5-min Rain = 0
KMC4 200518Z 14006KT 30/14 A2994 RMK A01 T02980137  RH  037%=      5-min Rain = 0
KMC4 200519Z 14006KT 30/14 A2994 RMK A01 T02980137  RH  037%=      5-min Rain = 0
KMC4 200520Z 14005KT 30/14 A2994 RMK A01 T02980137  RH  038%=      5-min Rain = 0
KMC4 200521Z 14007KT 30/14 A2994 RMK A01 T02960137  RH  038%=      5-min Rain = 0
KMC4 200522Z 14007KT 30/14 A2994 RMK A01 T02950137  RH  038%=      5-min Rain = 0
KMC4 200523Z 15005KT 30/14 A2994 RMK A01 T02950137  RH  038%=      5-min Rain = 0
KMC4 200524Z 14008KT 30/14 A2994 RMK A01 T02950137  RH  038%=      5-min Rain = 0
KMC4 200525Z 15009KT 30/14 A2994 RMK A01 T02950137  RH  038%=      5-min Rain = 0
KMC4 200526Z 15008KT 30/14 A2994 RMK A01 T02970137  RH  038%=      5-min Rain = 0
KMC4 200527Z 15007KT 30/14 A2994 RMK A01 T02970137  RH  038%=      5-min Rain = 0
KMC4 200528Z 15008KT 30/14 A2994 RMK A01 T02970137  RH  038%=      5-min Rain = 0
KMC4 200529Z 15009KT 30/14 A2994 RMK A01 T02970137  RH  038%=      5-min Rain = 0
KMC4 200530Z 15008KT 30/14 A2994 RMK A01 T02980138  RH  038%=      5-min Rain = 0
KMC4 200531Z 14008KT 30/14 A2994 RMK A01 T02980138  RH  037%=      5-min Rain = 0
KMC4 200532Z 15009KT 30/14 A2994 RMK A01 T02990138  RH  037%=      5-min Rain = 0
KMC4 200533Z 15010KT 30/14 A2994 RMK A01 T02990138  RH  037%=      5-min Rain = 0
KMC4 200534Z 15010KT 30/14 A2994 RMK A01 T03000139  RH  037%=      5-min Rain = 0
KMC4 200535Z 15009KT 30/14 A2994 RMK A01 T03000139  RH  037%=      5-min Rain = 0
KMC4 200536Z 15011KT 30/14 A2994 RMK A01 T03000139  RH  037%=      5-min Rain = 0
KMC4 200537Z 15009KT 30/14 A2994 RMK A01 T03000139  RH  037%=      5-min Rain = 0
KMC4 200538Z 15010KT 30/14 A2994 RMK A01 T03010140  RH  037%=      5-min Rain = 0
KMC4 200539Z 15008KT 30/14 A2994 RMK A01 T03010139  RH  037%=      5-min Rain = 0
KMC4 200540Z 15008KT 30/14 A2994 RMK A01 T03010140  RH  037%=      5-min Rain = 0
KMC4 200541Z 14009KT 30/14 A2994 RMK A01 T03010140  RH  037%=      5-min Rain = 0
KMC4 200542Z 14010KT 30/14 A2994 RMK A01 T03010140  RH  037%=      5-min Rain = 0
KMC4 200543Z 14010KT 30/14 A2994 RMK A01 T03010140  RH  037%=      5-min Rain = 0
KMC4 200544Z 14009KT 30/14 A2994 RMK A01 T03020140  RH  037%=      5-min Rain = 0
KMC4 200545Z 14009KT 30/14 A2994 RMK A01 T03010140  RH  037%=      5-min Rain = 0
KMC4 200546Z 15008KT 30/14 A2994 RMK A01 T03010140  RH  037%=      5-min Rain = 0
KMC4 200547Z 14008KT 30/14 A2994 RMK A01 T03010141  RH  038%=      5-min Rain = 0
KMC4 200548Z 15010KT 30/14 A2994 RMK A01 T03010141  RH  038%=      5-min Rain = 0
KMC4 200549Z 15011KT 30/14 A2994 RMK A01 T03010141  RH  038%=      5-min Rain = 0
KMC4 200550Z 14011G16KT 30/14 A2994 RMK A01 T03020141  RH  038%=      5-min Rain = 0
KMC4 200551Z 14013KT 30/14 A2994 RMK A01 T03020141  RH  037%=      5-min Rain = 0
KMC4 200552Z 15009KT 30/14 A2994 RMK A01 T03030141  RH  037%=      5-min Rain = 0
KMC4 200553Z 14008KT 30/14 A2994 RMK A01 T03040142  RH  037%=      5-min Rain = 0
KMC4 200554Z 14011KT 30/14 A2994 RMK A01 T03030141  RH  037%=      5-min Rain = 0
KMC4 200555Z 15009KT 30/14 A2994 RMK A01 T03030142  RH  038%=      5-min Rain = 0
KMC4 200556Z 15010KT 30/14 A2994 RMK A01 T03030142  RH  038%=      5-min Rain = 0
KMC4 200557Z 14010KT 30/14 A2994 RMK A01 T03030142  RH  038%=      5-min Rain = 0
KMC4 200558Z 14008KT 30/14 A2994 RMK A01 T03020142  RH  038%=      5-min Rain = 0
KMC4 200559Z 16007KT 30/14 A2994 RMK A01 T03020142  RH  038%=      5-min Rain = 0
KMC4 200600Z 14009KT 30/14 A2994 RMK A01 T03010142  RH  038%=      5-min Rain = 0
KMC4 200601Z 15010KT 30/14 A2994 RMK A01 T03010142  RH  038%=      5-min Rain = 0
KMC4 200602Z 14009KT 30/14 A2994 RMK A01 T03010143  RH  038%=      5-min Rain = 0
KMC4 200603Z 14009KT 30/14 A2994 RMK A01 T03010142  RH  038%=      5-min Rain = 0
KMC4 200604Z 14009KT 30/14 A2994 RMK A01 T03010143  RH  038%=      5-min Rain = 0
KMC4 200605Z 14010KT 30/14 A2994 RMK A01 T03010143  RH  038%=      5-min Rain = 0
KMC4 200606Z 13011KT 30/14 A2993 RMK A01 T03010143  RH  038%=      5-min Rain = 0
KMC4 200607Z 15009KT 30/14 A2993 RMK A01 T03010144  RH  038%=      5-min Rain = 0
KMC4 200608Z 14010KT 30/14 A2993 RMK A01 T03010143  RH  038%=      5-min Rain = 0
KMC4 200609Z 14011KT 30/14 A2993 RMK A01 T03010143  RH  038%=      5-min Rain = 0
KMC4 200610Z 14010KT 30/14 A2993 RMK A01 T03010143  RH  038%=      5-min Rain = 0
KMC4 200611Z 14009KT 30/14 A2993 RMK A01 T03010143  RH  038%=      5-min Rain = 0
KMC4 200612Z 13008KT 30/14 A2994 RMK A01 T03010144  RH  038%=      5-min Rain = 0
KMC4 200613Z 14007KT 30/14 A2993 RMK A01 T03000144  RH  038%=      5-min Rain = 0
KMC4 200614Z 14008KT 30/14 A2994 RMK A01 T03000144  RH  039%=      5-min Rain = 0
KMC4 200615Z 14008KT 30/14 A2993 RMK A01 T02990144  RH  039%=      5-min Rain = 0
KMC4 200616Z 13010KT 30/14 A2993 RMK A01 T02990144  RH  039%=      5-min Rain = 0
KMC4 200617Z 15012KT 30/14 A2993 RMK A01 T02990144  RH  039%=      5-min Rain = 0
KMC4 200618Z 13009KT 30/14 A2993 RMK A01 T03000144  RH  039%=      5-min Rain = 0
KMC4 200619Z 13010KT 30/14 A2994 RMK A01 T03000144  RH  039%=      5-min Rain = 0
KMC4 200620Z 14010KT 30/14 A2994 RMK A01 T02990144  RH  039%=      5-min Rain = 0
KMC4 200621Z 14010KT 30/14 A2994 RMK A01 T02990144  RH  039%=      5-min Rain = 0
KMC4 200622Z 13009KT 30/14 A2994 RMK A01 T02990144  RH  039%=      5-min Rain = 0
KMC4 200623Z 13009G15KT 30/14 A2994 RMK A01 T02980144  RH  039%=      5-min Rain = 0
KMC4 200624Z 14012KT 30/14 A2994 RMK A01 T02980144  RH  039%=      5-min Rain = 0
KMC4 200625Z 13012KT 30/15 A2994 RMK A01 T02980145  RH  039%=      5-min Rain = 0
KMC4 200626Z 14010KT 30/15 A2994 RMK A01 T02990145  RH  039%=      5-min Rain = 0
KMC4 200627Z 14010KT 30/15 A2994 RMK A01 T02990145  RH  039%=      5-min Rain = 0
KMC4 200628Z 14010KT 30/15 A2994 RMK A01 T02990145  RH  039%=      5-min Rain = 0
KMC4 200629Z 14010KT 30/15 A2994 RMK A01 T02980145  RH  039%=      5-min Rain = 0
KMC4 200630Z 14008KT 30/15 A2994 RMK A01 T02970145  RH  039%=      5-min Rain = 0
KMC4 200631Z 14010KT 30/15 A2994 RMK A01 T02970145  RH  040%=      5-min Rain = 0
KMC4 200632Z 14010KT 30/15 A2994 RMK A01 T02960145  RH  040%=      5-min Rain = 0
KMC4 200633Z 13011KT 30/15 A2994 RMK A01 T02960145  RH  040%=      5-min Rain = 0
KMC4 200634Z 14012KT 30/15 A2994 RMK A01 T02960146  RH  040%=      5-min Rain = 0
KMC4 200635Z 14010KT 30/15 A2994 RMK A01 T02970146  RH  040%=      5-min Rain = 0
KMC4 200636Z 14010KT 30/15 A2994 RMK A01 T02970146  RH  040%=      5-min Rain = 0
KMC4 200637Z 13009KT 30/15 A2994 RMK A01 T02970147  RH  040%=      5-min Rain = 0
KMC4 200638Z 14011KT 30/15 A2994 RMK A01 T02960147  RH  040%=      5-min Rain = 0
KMC4 200639Z 14014KT 30/15 A2993 RMK A01 T02960147  RH  040%=      5-min Rain = 0
KMC4 200640Z 14010KT 30/15 A2993 RMK A01 T02970147  RH  040%=      5-min Rain = 0
KMC4 200641Z 14011KT 30/15 A2993 RMK A01 T02970147  RH  040%=      5-min Rain = 0
KMC4 200642Z 14011G17KT 30/15 A2993 RMK A01 T02970147  RH  040%=      5-min Rain = 0
KMC4 200643Z 14010KT 30/15 A2993 RMK A01 T02970148  RH  040%=      5-min Rain = 0
KMC4 200644Z 14011KT 30/15 A2993 RMK A01 T02970148  RH  040%=      5-min Rain = 0
KMC4 200645Z 14011KT 30/15 A2993 RMK A01 T02970148  RH  040%=      5-min Rain = 0
KMC4 200646Z 15011KT 30/15 A2993 RMK A01 T02960148  RH  040%=      5-min Rain = 0
KMC4 200647Z 14012KT 30/15 A2993 RMK A01 T02970148  RH  040%=      5-min Rain = 0
KMC4 200648Z 14011KT 30/15 A2993 RMK A01 T02970149  RH  040%=      5-min Rain = 0
KMC4 200649Z 14013KT 30/15 A2993 RMK A01 T02970149  RH  041%=      5-min Rain = 0
KMC4 200650Z 15013KT 30/15 A2993 RMK A01 T02970149  RH  041%=      5-min Rain = 0
KMC4 200651Z 14013G20KT 30/15 A2993 RMK A01 T02980150  RH  041%=      5-min Rain = 0
KMC4 200652Z 15014KT 30/15 A2993 RMK A01 T02980150  RH  041%=      5-min Rain = 0
KMC4 200653Z 15014KT 30/15 A2993 RMK A01 T02990150  RH  041%=      5-min Rain = 0
KMC4 200654Z 15013KT 30/15 A2993 RMK A01 T02990150  RH  040%=      5-min Rain = 0
KMC4 200655Z 15013KT 30/15 A2993 RMK A01 T02990150  RH  041%=      5-min Rain = 0
KMC4 200656Z 15012G17KT 30/15 A2993 RMK A01 T02990151  RH  041%=      5-min Rain = 0
KMC4 200657Z 15014G19KT 30/15 A2993 RMK A01 T02980151  RH  041%=      5-min Rain = 0
KMC4 200658Z 15012KT 30/15 A2993 RMK A01 T02980151  RH  041%=      5-min Rain = 0
KMC4 200659Z 15011KT 30/15 A2993 RMK A01 T02980151  RH  041%=      5-min Rain = 0
KMC4 200700Z 15014KT 30/15 A2993 RMK A01 T02980151  RH  041%=      5-min Rain = 0
KMC4 200701Z 15014KT 30/15 A2993 RMK A01 T02980151  RH  041%=      5-min Rain = 0
KMC4 200702Z 16011KT 30/15 A2993 RMK A01 T02970151  RH  041%=      5-min Rain = 0
KMC4 200703Z 15017KT 30/15 A2993 RMK A01 T02970152  RH  041%=      5-min Rain = 0
KMC4 200704Z 15015KT 30/15 A2993 RMK A01 T02970152  RH  041%=      5-min Rain = 0
KMC4 200705Z 16014KT 30/15 A2993 RMK A01 T02980152  RH  041%=      5-min Rain = 0
KMC4 200706Z 15016KT 30/15 A2993 RMK A01 T02980152  RH  041%=      5-min Rain = 0
KMC4 200707Z 15018KT 30/15 A2993 RMK A01 T02990153  RH  041%=      5-min Rain = 0
KMC4 200708Z 16018KT 30/15 A2993 RMK A01 T02990153  RH  041%=      5-min Rain = 0
KMC4 200709Z 15014KT 30/15 A2993 RMK A01 T02990153  RH  041%=      5-min Rain = 0
KMC4 200710Z 15016G22KT 30/15 A2993 RMK A01 T02990153  RH  041%=      5-min Rain = 0
KMC4 200711Z 16016KT 30/15 A2993 RMK A01 T02990154  RH  041%=      5-min Rain = 0
KMC4 200712Z 15015KT 30/15 A2993 RMK A01 T02990154  RH  041%=      5-min Rain = 0
KMC4 200713Z 15016KT 30/15 A2993 RMK A01 T02990154  RH  042%=      5-min Rain = 0
KMC4 200714Z 15018KT 30/15 A2993 RMK A01 T02990154  RH  042%=      5-min Rain = 0
KMC4 200715Z 15018KT 30/15 A2993 RMK A01 T02990154  RH  041%=      5-min Rain = 0
KMC4 200716Z 15016G21KT 30/15 A2993 RMK A01 T02990154  RH  041%=      5-min Rain = 0
KMC4 200717Z 15018G24KT 30/15 A2993 RMK A01 T02990154  RH  042%=      5-min Rain = 0
KMC4 200718Z 15021KT 30/16 A2993 RMK A01 T02990155  RH  042%=      5-min Rain = 0
KMC4 200719Z 15018KT 30/16 A2993 RMK A01 T02990155  RH  042%=      5-min Rain = 0
KMC4 200720Z 15018KT 30/16 A2993 RMK A01 T02990155  RH  042%=      5-min Rain = 0
KMC4 200721Z 15014G20KT 30/16 A2993 RMK A01 T02990155  RH  042%=      5-min Rain = 0
KMC4 200722Z 14017KT 30/16 A2993 RMK A01 T02980155  RH  042%=      5-min Rain = 0
KMC4 200723Z 15019KT 30/16 A2993 RMK A01 T02980155  RH  042%=      5-min Rain = 0
KMC4 200724Z 16018G23KT 30/16 A2993 RMK A01 T02980155  RH  042%=      5-min Rain = 0
KMC4 200725Z 15019KT 30/16 A2993 RMK A01 T02980155  RH  042%=      5-min Rain = 0
KMC4 200726Z 15019KT 30/16 A2993 RMK A01 T02980155  RH  042%=      5-min Rain = 0
KMC4 200727Z 15018KT 30/16 A2993 RMK A01 T02990156  RH  042%=      5-min Rain = 0
KMC4 200728Z 15014KT 30/16 A2993 RMK A01 T02980155  RH  042%=      5-min Rain = 0
KMC4 200729Z 15014G19KT 30/16 A2993 RMK A01 T02980156  RH  042%=      5-min Rain = 0
KMC4 200730Z 15017G22KT 30/16 A2993 RMK A01 T02970156  RH  042%=      5-min Rain = 0
KMC4 200731Z 15021KT 30/16 A2993 RMK A01 T02970156  RH  042%=      5-min Rain = 0
KMC4 200732Z 14018KT 30/16 A2993 RMK A01 T02970156  RH  042%=      5-min Rain = 0
KMC4 200733Z 15017G22KT 30/16 A2993 RMK A01 T02970156  RH  042%=      5-min Rain = 0
KMC4 200734Z 15018KT 30/16 A2993 RMK A01 T02970156  RH  043%=      5-min Rain = 0
KMC4 200735Z 15020KT 30/16 A2993 RMK A01 T02970156  RH  043%=      5-min Rain = 0
KMC4 200736Z 15019G24KT 30/16 A2993 RMK A01 T02970156  RH  043%=      5-min Rain = 0
KMC4 200737Z 15016KT 30/16 A2993 RMK A01 T02960157  RH  043%=      5-min Rain = 0
KMC4 200738Z 15018G24KT 30/16 A2993 RMK A01 T02960156  RH  043%=      5-min Rain = 0
KMC4 200739Z 14018KT 30/16 A2993 RMK A01 T02950157  RH  043%=      5-min Rain = 0
KMC4 200740Z 15019G25KT 30/16 A2993 RMK A01 T02950157  RH  043%=      5-min Rain = 0
KMC4 200741Z 15018G23KT 30/16 A2993 RMK A01 T02950157  RH  043%=      5-min Rain = 0
KMC4 200742Z 15018G23KT 30/16 A2993 RMK A01 T02950157  RH  043%=      5-min Rain = 0
KMC4 200743Z 16020KT 30/16 A2993 RMK A01 T02950157  RH  043%=      5-min Rain = 0
KMC4 200744Z 15021KT 30/16 A2993 RMK A01 T02950157  RH  043%=      5-min Rain = 0
KMC4 200745Z 15017KT 30/16 A2993 RMK A01 T02950157  RH  043%=      5-min Rain = 0
KMC4 200746Z 15015KT 30/16 A2993 RMK A01 T02950157  RH  043%=      5-min Rain = 0
KMC4 200747Z 15017KT 30/16 A2993 RMK A01 T02950158  RH  043%=      5-min Rain = 0
KMC4 200748Z 15017KT 29/16 A2993 RMK A01 T02940158  RH  044%=      5-min Rain = 0
KMC4 200749Z 16017G22KT 29/16 A2993 RMK A01 T02940158  RH  044%=      5-min Rain = 0
KMC4 200750Z 15018KT 29/16 A2993 RMK A01 T02940158  RH  044%=      5-min Rain = 0
KMC4 200751Z 15018G23KT 29/16 A2993 RMK A01 T02940158  RH  044%=      5-min Rain = 0
KMC4 200752Z 15018G23KT 29/16 A2993 RMK A01 T02930158  RH  044%=      5-min Rain = 0
KMC4 200753Z 15020KT 29/16 A2992 RMK A01 T02940158  RH  044%=      5-min Rain = 0
KMC4 200754Z 15015KT 29/16 A2993 RMK A01 T02940158  RH  044%=      5-min Rain = 0
KMC4 200755Z 15020G26KT 29/16 A2992 RMK A01 T02940159  RH  044%=      5-min Rain = 0
KMC4 200756Z 15019KT 29/16 A2993 RMK A01 T02930159  RH  044%=      5-min Rain = 0
KMC4 200757Z 15015G21KT 29/16 A2993 RMK A01 T02930158  RH  044%=      5-min Rain = 0
KMC4 200758Z 15017KT 29/16 A2993 RMK A01 T02920159  RH  044%=      5-min Rain = 0
KMC4 200759Z 15016KT 29/16 A2993 RMK A01 T02920159  RH  044%=      5-min Rain = 0
KMC4 200800Z 14017KT 29/16 A2993 RMK A01 T02920159  RH  045%=      5-min Rain = 0
KMC4 200801Z 15017G23KT 29/16 A2993 RMK A01 T02910159  RH  045%=      5-min Rain = 0
KMC4 200802Z 15018KT 29/16 A2993 RMK A01 T02910159  RH  045%=      5-min Rain = 0
KMC4 200803Z 15017KT 29/16 A2993 RMK A01 T02920159  RH  045%=      5-min Rain = 0
KMC4 200804Z 15015KT 29/16 A2993 RMK A01 T02910159  RH  045%=      5-min Rain = 0
KMC4 200805Z 14016KT 29/16 A2993 RMK A01 T02910159  RH  045%=      5-min Rain = 0
KMC4 200806Z 15014KT 29/16 A2993 RMK A01 T02910159  RH  045%=      5-min Rain = 0
KMC4 200807Z 15014KT 29/16 A2993 RMK A01 T02900159  RH  045%=      5-min Rain = 0
KMC4 200808Z 14017KT 29/16 A2993 RMK A01 T02900160  RH  045%=      5-min Rain = 0
KMC4 200809Z 15017KT 29/16 A2993 RMK A01 T02900160  RH  045%=      5-min Rain = 0
KMC4 200810Z 15013KT 29/16 A2993 RMK A01 T02900160  RH  045%=      5-min Rain = 0
KMC4 200811Z 16014KT 29/16 A2993 RMK A01 T02890160  RH  046%=      5-min Rain = 0
KMC4 200812Z 14015KT 29/16 A2993 RMK A01 T02880160  RH  046%=      5-min Rain = 0
KMC4 200813Z 15018KT 29/16 A2992 RMK A01 T02880160  RH  046%=      5-min Rain = 0
KMC4 200814Z 15014G19KT 29/16 A2992 RMK A01 T02880160  RH  046%=      5-min Rain = 0
KMC4 200815Z 15016G21KT 29/16 A2992 RMK A01 T02880160  RH  046%=      5-min Rain = 0
KMC4 200816Z 15017KT 29/16 A2992 RMK A01 T02880160  RH  046%=      5-min Rain = 0
KMC4 200817Z 15019G24KT 29/16 A2992 RMK A01 T02880160  RH  046%=      5-min Rain = 0
KMC4 200818Z 15019KT 29/16 A2992 RMK A01 T02880161  RH  046%=      5-min Rain = 0
KMC4 200819Z 15019G24KT 29/16 A2992 RMK A01 T02880161  RH  046%=      5-min Rain = 0
KMC4 200820Z 15020KT 29/16 A2992 RMK A01 T02880161  RH  046%=      5-min Rain = 0
KMC4 200821Z 15022KT 29/16 A2992 RMK A01 T02880161  RH  046%=      5-min Rain = 0
KMC4 200822Z 15017KT 29/16 A2992 RMK A01 T02880162  RH  046%=      5-min Rain = 0
KMC4 200823Z 15016KT 29/16 A2992 RMK A01 T02880161  RH  046%=      5-min Rain = 0
KMC4 200824Z 15018KT 29/16 A2992 RMK A01 T02870162  RH  047%=      5-min Rain = 0
KMC4 200825Z 15018KT 29/16 A2992 RMK A01 T02870162  RH  047%=      5-min Rain = 0
KMC4 200826Z 15017G22KT 29/16 A2992 RMK A01 T02870162  RH  047%=      5-min Rain = 0
KMC4 200827Z 15018G23KT 29/16 A2992 RMK A01 T02870162  RH  047%=      5-min Rain = 0
KMC4 200828Z 15019G24KT 29/16 A2992 RMK A01 T02870162  RH  047%=      5-min Rain = 0
KMC4 200829Z 15024KT 29/16 A2992 RMK A01 T02870162  RH  047%=      5-min Rain = 0
KMC4 200830Z 15021KT 29/16 A2992 RMK A01 T02870162  RH  047%=      5-min Rain = 0
KMC4 200831Z 15020G25KT 29/16 A2992 RMK A01 T02870162  RH  047%=      5-min Rain = 0
KMC4 200832Z 15017KT 29/16 A2992 RMK A01 T02870162  RH  047%=      5-min Rain = 0
KMC4 200833Z 15017KT 29/16 A2992 RMK A01 T02870162  RH  047%=      5-min Rain = 0
KMC4 200834Z 14018KT 29/16 A2992 RMK A01 T02860162  RH  047%=      5-min Rain = 0
KMC4 200835Z 15013G19KT 29/16 A2992 RMK A01 T02860162  RH  047%=      5-min Rain = 0
KMC4 200836Z 15018KT 29/16 A2992 RMK A01 T02850162  RH  047%=      5-min Rain = 0
KMC4 200837Z 15016KT 28/16 A2992 RMK A01 T02840162  RH  047%=      5-min Rain = 0
KMC4 200838Z 16016KT 28/16 A2992 RMK A01 T02840162  RH  048%=      5-min Rain = 0
KMC4 200839Z 15014KT 28/16 A2992 RMK A01 T02840163  RH  048%=      5-min Rain = 0
KMC4 200840Z 15018G23KT 28/16 A2992 RMK A01 T02840163  RH  048%=      5-min Rain = 0
KMC4 200841Z 15021KT 28/16 A2992 RMK A01 T02830163  RH  048%=      5-min Rain = 0
KMC4 200842Z 15017KT 28/16 A2992 RMK A01 T02840163  RH  048%=      5-min Rain = 0
KMC4 200843Z 15019KT 28/16 A2992 RMK A01 T02840163  RH  048%=      5-min Rain = 0
KMC4 200844Z 15020KT 28/16 A2992 RMK A01 T02840163  RH  048%=      5-min Rain = 0
KMC4 200845Z 15018G23KT 28/16 A2992 RMK A01 T02840163  RH  048%=      5-min Rain = 0
KMC4 200846Z 15020KT 28/16 A2992 RMK A01 T02840163  RH  048%=      5-min Rain = 0
KMC4 200847Z 14020KT 28/16 A2992 RMK A01 T02840164  RH  048%=      5-min Rain = 0
KMC4 200848Z 15015KT 28/16 A2992 RMK A01 T02840164  RH  048%=      5-min Rain = 0
KMC4 200849Z 15016KT 28/16 A2992 RMK A01 T02830164  RH  048%=      5-min Rain = 0
KMC4 200850Z 15020G25KT 28/16 A2992 RMK A01 T02830164  RH  048%=      5-min Rain = 0
KMC4 200851Z 15019KT 28/16 A2992 RMK A01 T02830164  RH  048%=      5-min Rain = 0
KMC4 200852Z 15020KT 28/16 A2991 RMK A01 T02830164  RH  048%=      5-min Rain = 0
KMC4 200853Z 15020KT 28/16 A2991 RMK A01 T02830164  RH  048%=      5-min Rain = 0
KMC4 200854Z 15018KT 28/16 A2992 RMK A01 T02830164  RH  048%=      5-min Rain = 0
KMC4 200855Z 14016G21KT 28/16 A2992 RMK A01 T02820164  RH  049%=      5-min Rain = 0
KMC4 200856Z 16017G24KT 28/16 A2992 RMK A01 T02820164  RH  049%=      5-min Rain = 0
KMC4 200857Z 15015G20KT 28/16 A2992 RMK A01 T02810164  RH  049%=      5-min Rain = 0
KMC4 200858Z 14020KT 28/16 A2991 RMK A01 T02810164  RH  049%=      5-min Rain = 0
KMC4 200859Z 15019KT 28/16 A2992 RMK A01 T02810164  RH  049%=      5-min Rain = 0
KMC4 200900Z 16019G24KT 28/17 A2991 RMK A01 T02820166  RH  049%=      5-min Rain = 0
KMC4 200901Z 15017KT 28/17 A2991 RMK A01 T02810165  RH  049%=      5-min Rain = 0
KMC4 200902Z 14016KT 28/17 A2992 RMK A01 T02810165  RH  049%=      5-min Rain = 0
KMC4 200903Z 15015KT 28/17 A2992 RMK A01 T02800165  RH  050%=      5-min Rain = 0
KMC4 200904Z 14016KT 28/17 A2992 RMK A01 T02800165  RH  050%=      5-min Rain = 0
KMC4 200905Z 15015KT 28/17 A2991 RMK A01 T02800165  RH  050%=      5-min Rain = 0
KMC4 200906Z 15016G21KT 28/17 A2992 RMK A01 T02790166  RH  050%=      5-min Rain = 0
KMC4 200907Z 15020KT 28/17 A2991 RMK A01 T02790166  RH  050%=      5-min Rain = 0
KMC4 200908Z 15018G23KT 28/17 A2991 RMK A01 T02790166  RH  050%=      5-min Rain = 0
KMC4 200909Z 15015KT 28/17 A2991 RMK A01 T02790166  RH  050%=      5-min Rain = 0
KMC4 200910Z 15020KT 28/17 A2991 RMK A01 T02790166  RH  050%=      5-min Rain = 0
KMC4 200911Z 14017KT 28/17 A2991 RMK A01 T02790167  RH  050%=      5-min Rain = 0
KMC4 200912Z 14017KT 28/17 A2991 RMK A01 T02790167  RH  050%=      5-min Rain = 0
KMC4 200913Z 15015G20KT 28/17 A2991 RMK A01 T02780166  RH  051%=      5-min Rain = 0
KMC4 200914Z 15016KT 28/17 A2991 RMK A01 T02780167  RH  051%=      5-min Rain = 0
KMC4 200915Z 15017KT 28/17 A2991 RMK A01 T02780167  RH  051%=      5-min Rain = 0
KMC4 200916Z 14021G26KT 28/17 A2991 RMK A01 T02780167  RH  051%=      5-min Rain = 0
KMC4 200917Z 14021KT 28/17 A2991 RMK A01 T02780167  RH  051%=      5-min Rain = 0
KMC4 200918Z 15018KT 28/17 A2991 RMK A01 T02780167  RH  051%=      5-min Rain = 0
KMC4 200919Z 14016KT 28/17 A2991 RMK A01 T02780168  RH  051%=      5-min Rain = 0
KMC4 200920Z 14016KT 28/17 A2991 RMK A01 T02770168  RH  051%=      5-min Rain = 0
KMC4 200921Z 14015KT 28/17 A2991 RMK A01 T02770168  RH  051%=      5-min Rain = 0
KMC4 200922Z 15018KT 28/17 A2991 RMK A01 T02760168  RH  052%=      5-min Rain = 0
KMC4 200923Z 15016KT 28/17 A2991 RMK A01 T02760168  RH  052%=      5-min Rain = 0
KMC4 200924Z 14016KT 28/17 A2991 RMK A01 T02760168  RH  052%=      5-min Rain = 0
KMC4 200925Z 15016G21KT 28/17 A2991 RMK A01 T02760168  RH  052%=      5-min Rain = 0
KMC4 200926Z 15013KT 28/17 A2991 RMK A01 T02760168  RH  052%=      5-min Rain = 0
KMC4 200927Z 15015KT 28/17 A2991 RMK A01 T02750169  RH  052%=      5-min Rain = 0
KMC4 200928Z 15017KT 28/17 A2991 RMK A01 T02750168  RH  052%=      5-min Rain = 0
KMC4 200929Z 14018KT 28/17 A2991 RMK A01 T02750169  RH  052%=      5-min Rain = 0
KMC4 200930Z 15019KT 28/17 A2991 RMK A01 T02750169  RH  052%=      5-min Rain = 0
KMC4 200931Z 14019KT 28/17 A2991 RMK A01 T02750169  RH  052%=      5-min Rain = 0
KMC4 200932Z 14017G22KT 28/17 A2991 RMK A01 T02750169  RH  052%=      5-min Rain = 0
KMC4 200933Z 15018KT 28/17 A2991 RMK A01 T02760169  RH  052%=      5-min Rain = 0
KMC4 200934Z 15018KT 28/17 A2991 RMK A01 T02750170  RH  052%=      5-min Rain = 0
KMC4 200935Z 15016KT 28/17 A2991 RMK A01 T02750170  RH  052%=      5-min Rain = 0
KMC4 200936Z 15018KT 28/17 A2991 RMK A01 T02750170  RH  053%=      5-min Rain = 0
KMC4 200937Z 14017G23KT 28/17 A2991 RMK A01 T02750169  RH  053%=      5-min Rain = 0
KMC4 200938Z 14018KT 28/17 A2991 RMK A01 T02750170  RH  053%=      5-min Rain = 0
KMC4 200939Z 15018KT 28/17 A2991 RMK A01 T02750170  RH  053%=      5-min Rain = 0
KMC4 200940Z 14017G23KT 28/17 A2992 RMK A01 T02750170  RH  053%=      5-min Rain = 0
KMC4 200941Z 15014KT 27/17 A2992 RMK A01 T02740170  RH  053%=      5-min Rain = 0
KMC4 200942Z 15017G22KT 27/17 A2992 RMK A01 T02740170  RH  053%=      5-min Rain = 0
KMC4 200943Z 14016KT 27/17 A2992 RMK A01 T02740170  RH  053%=      5-min Rain = 0
KMC4 200944Z 15015KT 27/17 A2991 RMK A01 T02740170  RH  053%=      5-min Rain = 0
KMC4 200945Z 14016KT 27/17 A2991 RMK A01 T02730170  RH  053%=      5-min Rain = 0
KMC4 200946Z 14017G22KT 27/17 A2991 RMK A01 T02730170  RH  053%=      5-min Rain = 0
KMC4 200947Z 15019KT 27/17 A2991 RMK A01 T02730171  RH  053%=      5-min Rain = 0
KMC4 200948Z 15015KT 27/17 A2991 RMK A01 T02730170  RH  053%=      5-min Rain = 0
KMC4 200949Z 14014KT 27/17 A2991 RMK A01 T02730170  RH  053%=      5-min Rain = 0
KMC4 200950Z 15017KT 27/17 A2991 RMK A01 T02730171  RH  054%=      5-min Rain = 0
KMC4 200951Z 14017KT 27/17 A2991 RMK A01 T02720171  RH  054%=      5-min Rain = 0
KMC4 200952Z 14016KT 27/17 A2991 RMK A01 T02720171  RH  054%=      5-min Rain = 0
KMC4 200953Z 14015KT 27/17 A2991 RMK A01 T02720171  RH  054%=      5-min Rain = 0
KMC4 200954Z 15014KT 27/17 A2991 RMK A01 T02710171  RH  054%=      5-min Rain = 0
KMC4 200955Z 15014KT 27/17 A2991 RMK A01 T02710171  RH  054%=      5-min Rain = 0
KMC4 200956Z 15015KT 27/17 A2991 RMK A01 T02710171  RH  054%=      5-min Rain = 0
KMC4 200957Z 14016KT 27/17 A2991 RMK A01 T02700171  RH  054%=      5-min Rain = 0
KMC4 200958Z 14014G19KT 27/17 A2991 RMK A01 T02700171  RH  054%=      5-min Rain = 0
KMC4 200959Z 14013KT 27/17 A2991 RMK A01 T02700171  RH  055%=      5-min Rain = 0
KMC4 201000Z 14016KT 27/17 A2991 RMK A01 T02700171  RH  055%=      5-min Rain = 0
KMC4 201001Z 14018KT 27/17 A2991 RMK A01 T02700171  RH  055%=      5-min Rain = 0
KMC4 201002Z 15017KT 27/17 A2991 RMK A01 T02700171  RH  055%=      5-min Rain = 0
KMC4 201003Z 15019KT 27/17 A2991 RMK A01 T02700171  RH  055%=      5-min Rain = 0
KMC4 201004Z 15015KT 27/17 A2991 RMK A01 T02700171  RH  054%=      5-min Rain = 0
KMC4 201005Z 14014KT 27/17 A2992 RMK A01 T02700171  RH  054%=      5-min Rain = 0
KMC4 201006Z 14017KT 27/17 A2991 RMK A01 T02700171  RH  055%=      5-min Rain = 0
KMC4 201007Z 14015KT 27/17 A2991 RMK A01 T02700171  RH  055%=      5-min Rain = 0
KMC4 201008Z 14016KT 27/17 A2991 RMK A01 T02690171  RH  055%=      5-min Rain = 0
KMC4 201009Z 14016KT 27/17 A2991 RMK A01 T02690172  RH  055%=      5-min Rain = 0
KMC4 201010Z 15014KT 27/17 A2991 RMK A01 T02690171  RH  055%=      5-min Rain = 0
KMC4 201011Z 15015G21KT 27/17 A2991 RMK A01 T02690171  RH  055%=      5-min Rain = 0
KMC4 201012Z 14016KT 27/17 A2992 RMK A01 T02680171  RH  055%=      5-min Rain = 0
KMC4 201013Z 14013KT 27/17 A2992 RMK A01 T02680171  RH  055%=      5-min Rain = 0
KMC4 201014Z 14019G24KT 27/17 A2991 RMK A01 T02680171  RH  055%=      5-min Rain = 0
KMC4 201015Z 14016KT 27/17 A2992 RMK A01 T02680171  RH  055%=      5-min Rain = 0
KMC4 201016Z 14012KT 27/17 A2992 RMK A01 T02680171  RH  055%=      5-min Rain = 0
KMC4 201017Z 15013G18KT 27/17 A2992 RMK A01 T02680171  RH  055%=      5-min Rain = 0
KMC4 201018Z 14015G21KT 27/17 A2992 RMK A01 T02680171  RH  055%=      5-min Rain = 0
KMC4 201019Z 14017KT 27/17 A2992 RMK A01 T02680171  RH  055%=      5-min Rain = 0
KMC4 201020Z 15015KT 27/17 A2992 RMK A01 T02670171  RH  055%=      5-min Rain = 0
KMC4 201021Z 15017KT 27/17 A2992 RMK A01 T02670171  RH  055%=      5-min Rain = 0
KMC4 201022Z 15016KT 27/17 A2991 RMK A01 T02680171  RH  055%=      5-min Rain = 0
KMC4 201023Z 15016KT 27/17 A2992 RMK A01 T02670171  RH  055%=      5-min Rain = 0
KMC4 201024Z 14012KT 27/17 A2992 RMK A01 T02670171  RH  055%=      5-min Rain = 0
KMC4 201025Z 15017KT 27/17 A2992 RMK A01 T02670171  RH  056%=      5-min Rain = 0
KMC4 201026Z 14014KT 27/17 A2992 RMK A01 T02670171  RH  056%=      5-min Rain = 0
KMC4 201027Z 14012KT 27/17 A2992 RMK A01 T02670171  RH  056%=      5-min Rain = 0
KMC4 201028Z 14015KT 27/17 A2992 RMK A01 T02670171  RH  056%=      5-min Rain = 0
KMC4 201029Z 14015KT 27/17 A2992 RMK A01 T02660171  RH  056%=      5-min Rain = 0
KMC4 201030Z 15011KT 27/17 A2992 RMK A01 T02660171  RH  056%=      5-min Rain = 0
KMC4 201031Z 13015KT 27/17 A2992 RMK A01 T02660171  RH  056%=      5-min Rain = 0
KMC4 201032Z 14013KT 27/17 A2992 RMK A01 T02650171  RH  056%=      5-min Rain = 0
KMC4 201033Z 14013G19KT 27/17 A2992 RMK A01 T02650171  RH  056%=      5-min Rain = 0
KMC4 201034Z 15009KT 27/17 A2992 RMK A01 T02650171  RH  056%=      5-min Rain = 0
KMC4 201035Z 15014KT 26/17 A2992 RMK A01 T02640170  RH  056%=      5-min Rain = 0
KMC4 201036Z 15014KT 26/17 A2992 RMK A01 T02640170  RH  056%=      5-min Rain = 0
KMC4 201037Z 14012KT 27/17 A2992 RMK A01 T02650170  RH  056%=      5-min Rain = 0
KMC4 201038Z 15010KT 26/17 A2992 RMK A01 T02640170  RH  056%=      5-min Rain = 0
KMC4 201039Z 14009KT 26/17 A2992 RMK A01 T02640170  RH  056%=      5-min Rain = 0
KMC4 201040Z 15010KT 26/17 A2992 RMK A01 T02640170  RH  056%=      5-min Rain = 0
KMC4 201041Z 14010KT 26/17 A2992 RMK A01 T02630170  RH  056%=      5-min Rain = 0
KMC4 201042Z 14010KT 26/17 A2992 RMK A01 T02630170  RH  056%=      5-min Rain = 0
KMC4 201043Z 14010KT 26/17 A2992 RMK A01 T02630170  RH  057%=      5-min Rain = 0
KMC4 201044Z 14011G16KT 26/17 A2992 RMK A01 T02630170  RH  057%=      5-min Rain = 0
KMC4 201045Z 13012KT 26/17 A2992 RMK A01 T02630170  RH  057%=      5-min Rain = 0
KMC4 201046Z 13010KT 26/17 A2992 RMK A01 T02630170  RH  056%=      5-min Rain = 0
KMC4 201047Z 14012KT 26/17 A2992 RMK A01 T02630170  RH  056%=      5-min Rain = 0
KMC4 201048Z 14012KT 26/17 A2993 RMK A01 T02630170  RH  056%=      5-min Rain = 0
KMC4 201049Z 14009KT 26/17 A2993 RMK A01 T02630170  RH  056%=      5-min Rain = 0
KMC4 201050Z 14008KT 26/17 A2993 RMK A01 T02630169  RH  056%=      5-min Rain = 0
KMC4 201051Z 14011KT 26/17 A2993 RMK A01 T02620169  RH  057%=      5-min Rain = 0
KMC4 201052Z 13012KT 26/17 A2993 RMK A01 T02620169  RH  057%=      5-min Rain = 0
KMC4 201053Z 14010KT 26/17 A2993 RMK A01 T02620169  RH  056%=      5-min Rain = 0
KMC4 201054Z 14012KT 26/17 A2993 RMK A01 T02620169  RH  056%=      5-min Rain = 0
KMC4 201055Z 13008KT 26/17 A2993 RMK A01 T02620169  RH  056%=      5-min Rain = 0
KMC4 201056Z 13008KT 26/17 A2993 RMK A01 T02620169  RH  057%=      5-min Rain = 0
KMC4 201057Z 14009KT 26/17 A2993 RMK A01 T02610169  RH  057%=      5-min Rain = 0
KMC4 201058Z 13009KT 26/17 A2993 RMK A01 T02610168  RH  057%=      5-min Rain = 0
KMC4 201059Z 13010KT 26/17 A2993 RMK A01 T02610168  RH  057%=      5-min Rain = 0
KMC4 201100Z 14010KT 26/17 A2993 RMK A01 T02610169  RH  057%=      5-min Rain = 0
KMC4 201101Z 14010KT 26/17 A2993 RMK A01 T02610169  RH  057%=      5-min Rain = 0
KMC4 201102Z 15009KT 26/17 A2993 RMK A01 T02610169  RH  057%=      5-min Rain = 0
KMC4 201103Z 14009KT 26/17 A2993 RMK A01 T02610168  RH  057%=      5-min Rain = 0
KMC4 201104Z 14010KT 26/17 A2993 RMK A01 T02600168  RH  057%=      5-min Rain = 0
KMC4 201105Z 14009KT 26/17 A2993 RMK A01 T02600168  RH  057%=      5-min Rain = 0
KMC4 201106Z 15008KT 26/17 A2993 RMK A01 T02600168  RH  057%=      5-min Rain = 0
KMC4 201107Z 15010KT 26/17 A2993 RMK A01 T02590168  RH  057%=      5-min Rain = 0
KMC4 201108Z 14012KT 26/17 A2993 RMK A01 T02590168  RH  057%=      5-min Rain = 0
KMC4 201109Z 15013KT 26/17 A2993 RMK A01 T02590168  RH  057%=      5-min Rain = 0
KMC4 201110Z 14011KT 26/17 A2993 RMK A01 T02590168  RH  057%=      5-min Rain = 0
KMC4 201111Z 14011KT 26/17 A2993 RMK A01 T02590168  RH  057%=      5-min Rain = 0
KMC4 201112Z 15013KT 26/17 A2993 RMK A01 T02590168  RH  057%=      5-min Rain = 0
KMC4 201113Z 15014KT 26/17 A2993 RMK A01 T02580168  RH  057%=      5-min Rain = 0
KMC4 201114Z 14013KT 26/17 A2993 RMK A01 T02590167  RH  057%=      5-min Rain = 0
KMC4 201115Z 14012KT 26/17 A2993 RMK A01 T02590167  RH  057%=      5-min Rain = 0
KMC4 201116Z 15015KT 26/17 A2993 RMK A01 T02590168  RH  057%=      5-min Rain = 0
KMC4 201117Z 15015KT 26/17 A2993 RMK A01 T02590167  RH  057%=      5-min Rain = 0
KMC4 201118Z 15015KT 26/17 A2993 RMK A01 T02590167  RH  057%=      5-min Rain = 0
KMC4 201119Z 15011KT 26/17 A2993 RMK A01 T02590167  RH  057%=      5-min Rain = 0
KMC4 201120Z 14013KT 26/17 A2993 RMK A01 T02590167  RH  057%=      5-min Rain = 0
KMC4 201121Z 15013KT 26/17 A2993 RMK A01 T02590167  RH  057%=      5-min Rain = 0
KMC4 201122Z 15013KT 26/17 A2993 RMK A01 T02580167  RH  057%=      5-min Rain = 0
KMC4 201123Z 15011KT 26/17 A2993 RMK A01 T02580167  RH  057%=      5-min Rain = 0
KMC4 201124Z 15011KT 26/17 A2993 RMK A01 T02580167  RH  057%=      5-min Rain = 0
KMC4 201125Z 14010KT 26/17 A2993 RMK A01 T02580167  RH  057%=      5-min Rain = 0
KMC4 201126Z 15011KT 26/17 A2993 RMK A01 T02570167  RH  058%=      5-min Rain = 0
KMC4 201127Z 14013KT 26/17 A2993 RMK A01 T02560167  RH  058%=      5-min Rain = 0
KMC4 201128Z 15013KT 26/17 A2993 RMK A01 T02560167  RH  058%=      5-min Rain = 0
KMC4 201129Z 14013KT 26/17 A2993 RMK A01 T02570167  RH  058%=      5-min Rain = 0
KMC4 201130Z 15010KT 26/17 A2993 RMK A01 T02570167  RH  058%=      5-min Rain = 0
KMC4 201131Z 15009KT 26/17 A2993 RMK A01 T02570167  RH  058%=      5-min Rain = 0
KMC4 201132Z 14008KT 26/17 A2994 RMK A01 T02570168  RH  058%=      5-min Rain = 0
KMC4 201133Z 15008KT 26/17 A2994 RMK A01 T02560167  RH  058%=      5-min Rain = 0
KMC4 201134Z 14009KT 26/17 A2994 RMK A01 T02550168  RH  058%=      5-min Rain = 0
KMC4 201135Z 14006KT 26/17 A2994 RMK A01 T02550167  RH  058%=      5-min Rain = 0
KMC4 201136Z 14007KT 26/17 A2994 RMK A01 T02550168  RH  059%=      5-min Rain = 0
KMC4 201137Z 13009KT 25/17 A2994 RMK A01 T02540168  RH  059%=      5-min Rain = 0
KMC4 201138Z 13008KT 25/17 A2994 RMK A01 T02540168  RH  059%=      5-min Rain = 0
KMC4 201139Z 13010KT 25/17 A2994 RMK A01 T02540168  RH  059%=      5-min Rain = 0
KMC4 201140Z 12010KT 25/17 A2994 RMK A01 T02540169  RH  059%=      5-min Rain = 0
KMC4 201141Z 13008KT 25/17 A2994 RMK A01 T02540168  RH  059%=      5-min Rain = 0
KMC4 201142Z 12007KT 25/17 A2994 RMK A01 T02540169  RH  059%=      5-min Rain = 0
KMC4 201143Z 11006KT 25/17 A2994 RMK A01 T02540169  RH  059%=      5-min Rain = 0
KMC4 201144Z 12008KT 25/17 A2994 RMK A01 T02540169  RH  059%=      5-min Rain = 0
KMC4 201145Z 11006KT 25/17 A2994 RMK A01 T02540169  RH  059%=      5-min Rain = 0
KMC4 201146Z 11007KT 25/17 A2994 RMK A01 T02540169  RH  059%=      5-min Rain = 0
KMC4 201147Z 10007KT 25/17 A2994 RMK A01 T02540169  RH  059%=      5-min Rain = 0
KMC4 201148Z 09006KT 25/17 A2994 RMK A01 T02540169  RH  059%=      5-min Rain = 0
KMC4 201149Z 10007KT 25/17 A2995 RMK A01 T02540170  RH  059%=      5-min Rain = 0
KMC4 201150Z 10006KT 25/17 A2995 RMK A01 T02540170  RH  060%=      5-min Rain = 0
KMC4 201151Z 10007KT 25/17 A2995 RMK A01 T02540170  RH  060%=      5-min Rain = 0
KMC4 201152Z 10005KT 25/17 A2995 RMK A01 T02530170  RH  060%=      5-min Rain = 0
KMC4 201153Z 09006KT 25/17 A2995 RMK A01 T02530170  RH  060%=      5-min Rain = 0
KMC4 201154Z 10007KT 25/17 A2995 RMK A01 T02530171  RH  060%=      5-min Rain = 0
KMC4 201155Z 11005KT 25/17 A2995 RMK A01 T02520171  RH  060%=      5-min Rain = 0
KMC4 201156Z 11006KT 25/17 A2995 RMK A01 T02530171  RH  061%=      5-min Rain = 0
KMC4 201157Z 12008KT 25/17 A2995 RMK A01 T02520171  RH  061%=      5-min Rain = 0
KMC4 201158Z 11008KT 25/17 A2995 RMK A01 T02520172  RH  061%=      5-min Rain = 0
KMC4 201159Z 12007KT 25/17 A2995 RMK A01 T02520171  RH  061%=      5-min Rain = 0
KMC4 201200Z 11009KT 25/17 A2995 RMK A01 T02520172  RH  061%=      5-min Rain = 0
KMC4 201201Z 12009KT 25/17 A2995 RMK A01 T02520172  RH  061%=      5-min Rain = 0
KMC4 201202Z 13009KT 25/17 A2995 RMK A01 T02520172  RH  061%=      5-min Rain = 0
KMC4 201203Z 14009KT 25/17 A2995 RMK A01 T02520172  RH  061%=      5-min Rain = 0
KMC4 201204Z 13009KT 25/17 A2995 RMK A01 T02520172  RH  061%=      5-min Rain = 0
KMC4 201205Z 13009KT 25/17 A2995 RMK A01 T02510172  RH  062%=      5-min Rain = 0
KMC4 201206Z 14010KT 25/17 A2994 RMK A01 T02510173  RH  062%=      5-min Rain = 0
KMC4 201207Z 15010KT 25/17 A2994 RMK A01 T02510173  RH  062%=      5-min Rain = 0
KMC4 201208Z 14012KT 25/17 A2994 RMK A01 T02500173  RH  062%=      5-min Rain = 0
KMC4 201209Z 15012G17KT 25/17 A2994 RMK A01 T02500173  RH  062%=      5-min Rain = 0
KMC4 201210Z 14015KT 25/17 A2994 RMK A01 T02510173  RH  062%=      5-min Rain = 0
KMC4 201211Z 15014KT 25/17 A2994 RMK A01 T02510174  RH  062%=      5-min Rain = 0
KMC4 201212Z 15016KT 25/17 A2994 RMK A01 T02500174  RH  062%=      5-min Rain = 0
KMC4 201213Z 15013KT 25/17 A2994 RMK A01 T02510174  RH  062%=      5-min Rain = 0
KMC4 201214Z 16012KT 25/17 A2994 RMK A01 T02510174  RH  062%=      5-min Rain = 0
KMC4 201215Z 16013KT 25/18 A2994 RMK A01 T02510175  RH  063%=      5-min Rain = 0
KMC4 201216Z 16013KT 25/18 A2994 RMK A01 T02510175  RH  063%=      5-min Rain = 0
KMC4 201217Z 16012KT 25/18 A2994 RMK A01 T02510175  RH  063%=      5-min Rain = 0
KMC4 201218Z 16011KT 25/18 A2994 RMK A01 T02510175  RH  063%=      5-min Rain = 0
KMC4 201219Z 15011KT 25/18 A2994 RMK A01 T02500175  RH  063%=      5-min Rain = 0
KMC4 201220Z 16012KT 25/18 A2994 RMK A01 T02500175  RH  063%=      5-min Rain = 0
KMC4 201221Z 15012KT 25/18 A2994 RMK A01 T02500175  RH  063%=      5-min Rain = 0
KMC4 201222Z 15010KT 25/18 A2994 RMK A01 T02500175  RH  063%=      5-min Rain = 0
KMC4 201223Z 15010KT 25/18 A2994 RMK A01 T02500175  RH  063%=      5-min Rain = 0
KMC4 201224Z 15009KT 25/18 A2994 RMK A01 T02500175  RH  063%=      5-min Rain = 0
KMC4 201225Z 14010KT 25/18 A2994 RMK A01 T02500175  RH  063%=      5-min Rain = 0
KMC4 201226Z 14011KT 25/18 A2994 RMK A01 T02500175  RH  063%=      5-min Rain = 0
KMC4 201227Z 15011KT 25/18 A2994 RMK A01 T02500175  RH  063%=      5-min Rain = 0
KMC4 201228Z 14010KT 25/18 A2994 RMK A01 T02500175  RH  063%=      5-min Rain = 0
KMC4 201229Z 15009KT 25/18 A2994 RMK A01 T02500176  RH  063%=      5-min Rain = 0
KMC4 201230Z 14009KT 25/18 A2995 RMK A01 T02500176  RH  063%=      5-min Rain = 0
KMC4 201231Z 14010KT 25/18 A2995 RMK A01 T02500176  RH  063%=      5-min Rain = 0
KMC4 201232Z 14010KT 25/18 A2995 RMK A01 T02500176  RH  063%=      5-min Rain = 0
KMC4 201233Z 14009KT 25/18 A2995 RMK A01 T02510176  RH  063%=      5-min Rain = 0
KMC4 201234Z 14009KT 25/18 A2995 RMK A01 T02510176  RH  063%=      5-min Rain = 0
KMC4 201235Z 14009KT 25/18 A2995 RMK A01 T02510177  RH  063%=      5-min Rain = 0
KMC4 201236Z 13010KT 25/18 A2995 RMK A01 T02510177  RH  063%=      5-min Rain = 0
KMC4 201237Z 13010KT 25/18 A2995 RMK A01 T02520177  RH  063%=      5-min Rain = 0
KMC4 201238Z 13010KT 25/18 A2995 RMK A01 T02520177  RH  063%=      5-min Rain = 0
KMC4 201239Z 14010KT 25/18 A2995 RMK A01 T02520177  RH  063%=      5-min Rain = 0
KMC4 201240Z 14010KT 25/18 A2995 RMK A01 T02520177  RH  063%=      5-min Rain = 0
KMC4 201241Z 14009KT 25/18 A2995 RMK A01 T02520177  RH  063%=      5-min Rain = 0
KMC4 201242Z 13009KT 25/18 A2995 RMK A01 T02520177  RH  063%=      5-min Rain = 0
KMC4 201243Z 14009KT 25/18 A2995 RMK A01 T02520178  RH  063%=      5-min Rain = 0
KMC4 201244Z 15009KT 25/18 A2995 RMK A01 T02520178  RH  063%=      5-min Rain = 0
KMC4 201245Z 14012KT 25/18 A2995 RMK A01 T02520178  RH  063%=      5-min Rain = 0
KMC4 201246Z 14010KT 25/18 A2995 RMK A01 T02520178  RH  063%=      5-min Rain = 0
KMC4 201247Z 14011KT 25/18 A2995 RMK A01 T02530178  RH  063%=      5-min Rain = 0
KMC4 201248Z 15010KT 25/18 A2995 RMK A01 T02530178  RH  063%=      5-min Rain = 0
KMC4 201249Z 15011KT 25/18 A2995 RMK A01 T02530178  RH  063%=      5-min Rain = 0
KMC4 201250Z 15011KT 25/18 A2995 RMK A01 T02530179  RH  063%=      5-min Rain = 0
KMC4 201251Z 15011KT 25/18 A2995 RMK A01 T02530179  RH  064%=      5-min Rain = 0
KMC4 201252Z 15009KT 25/18 A2995 RMK A01 T02530179  RH  064%=      5-min Rain = 0
KMC4 201253Z 14009KT 25/18 A2995 RMK A01 T02530179  RH  064%=      5-min Rain = 0
KMC4 201254Z 14009KT 25/18 A2995 RMK A01 T02530180  RH  064%=      5-min Rain = 0
KMC4 201255Z 14009KT 25/18 A2995 RMK A01 T02540180  RH  063%=      5-min Rain = 0
KMC4 201256Z 15008KT 25/18 A2995 RMK A01 T02540180  RH  063%=      5-min Rain = 0
KMC4 201257Z 14011KT 25/18 A2995 RMK A01 T02540180  RH  063%=      5-min Rain = 0
KMC4 201258Z 14011KT 25/18 A2995 RMK A01 T02540180  RH  063%=      5-min Rain = 0
KMC4 201259Z 15010KT 25/18 A2995 RMK A01 T02540180  RH  063%=      5-min Rain = 0
KMC4 201300Z 15012KT 25/18 A2995 RMK A01 T02540180  RH  063%=      5-min Rain = 0
KMC4 201301Z 14011KT 25/18 A2995 RMK A01 T02540180  RH  063%=      5-min Rain = 0
KMC4 201302Z 15011KT 26/18 A2995 RMK A01 T02550181  RH  064%=      5-min Rain = 0
KMC4 201303Z 14010KT 26/18 A2995 RMK A01 T02550181  RH  063%=      5-min Rain = 0
KMC4 201304Z 14009KT 26/18 A2995 RMK A01 T02550181  RH  063%=      5-min Rain = 0
KMC4 201305Z 14010KT 26/18 A2995 RMK A01 T02560181  RH  063%=      5-min Rain = 0
KMC4 201306Z 14009KT 26/18 A2995 RMK A01 T02570181  RH  063%=      5-min Rain = 0
KMC4 201307Z 14010KT 26/18 A2995 RMK A01 T02570181  RH  063%=      5-min Rain = 0
KMC4 201308Z 13011KT 26/18 A2995 RMK A01 T02580181  RH  063%=      5-min Rain = 0
KMC4 201309Z 13012KT 26/18 A2995 RMK A01 T02580181  RH  063%=      5-min Rain = 0
KMC4 201310Z 13011KT 26/18 A2995 RMK A01 T02570181  RH  063%=      5-min Rain = 0
KMC4 201311Z 13013KT 26/18 A2995 RMK A01 T02570182  RH  063%=      5-min Rain = 0
KMC4 201312Z 13013KT 26/18 A2995 RMK A01 T02580182  RH  063%=      5-min Rain = 0
KMC4 201313Z 13012KT 26/18 A2995 RMK A01 T02570182  RH  063%=      5-min Rain = 0
KMC4 201314Z 14011KT 26/18 A2995 RMK A01 T02580182  RH  063%=      5-min Rain = 0
KMC4 201315Z 14009KT 26/18 A2995 RMK A01 T02580183  RH  063%=      5-min Rain = 0
KMC4 201316Z 14010KT 26/18 A2995 RMK A01 T02590183  RH  063%=      5-min Rain = 0
KMC4 201317Z 15011KT 26/18 A2995 RMK A01 T02590183  RH  063%=      5-min Rain = 0
KMC4 201318Z 14010KT 26/18 A2995 RMK A01 T02590183  RH  063%=      5-min Rain = 0
KMC4 201319Z 14011KT 26/18 A2996 RMK A01 T02590183  RH  063%=      5-min Rain = 0
KMC4 201320Z 13010KT 26/18 A2996 RMK A01 T02590183  RH  063%=      5-min Rain = 0
KMC4 201321Z 13011KT 26/18 A2996 RMK A01 T02590183  RH  063%=      5-min Rain = 0
KMC4 201322Z 14013KT 26/18 A2996 RMK A01 T02600183  RH  063%=      5-min Rain = 0
KMC4 201323Z 13013KT 26/18 A2996 RMK A01 T02600183  RH  063%=      5-min Rain = 0
KMC4 201324Z 13011KT 26/18 A2996 RMK A01 T02600184  RH  063%=      5-min Rain = 0
KMC4 201325Z 13013KT 26/18 A2996 RMK A01 T02600184  RH  063%=      5-min Rain = 0
KMC4 201326Z 14011KT 26/18 A2996 RMK A01 T02600184  RH  063%=      5-min Rain = 0
KMC4 201327Z 14013KT 26/18 A2996 RMK A01 T02610184  RH  063%=      5-min Rain = 0
KMC4 201328Z 14010KT 26/18 A2996 RMK A01 T02600184  RH  063%=      5-min Rain = 0
KMC4 201329Z 14011KT 26/18 A2996 RMK A01 T02600184  RH  063%=      5-min Rain = 0
KMC4 201330Z 15013KT 26/18 A2996 RMK A01 T02600184  RH  063%=      5-min Rain = 0
KMC4 201331Z 16011KT 26/19 A2996 RMK A01 T02590185  RH  063%=      5-min Rain = 0
KMC4 201332Z 14014KT 26/19 A2996 RMK A01 T02590185  RH  063%=      5-min Rain = 0
KMC4 201333Z 14015KT 26/18 A2996 RMK A01 T02590184  RH  063%=      5-min Rain = 0
KMC4 201334Z 14015KT 26/19 A2996 RMK A01 T02600185  RH  063%=      5-min Rain = 0
KMC4 201335Z 14012KT 26/19 A2996 RMK A01 T02600185  RH  063%=      5-min Rain = 0
KMC4 201336Z 14012KT 26/19 A2996 RMK A01 T02600185  RH  063%=      5-min Rain = 0
KMC4 201337Z 14013KT 26/19 A2996 RMK A01 T02620185  RH  063%=      5-min Rain = 0
KMC4 201338Z 14011KT 26/19 A2996 RMK A01 T02630185  RH  062%=      5-min Rain = 0
KMC4 201339Z 14011KT 26/19 A2996 RMK A01 T02630186  RH  063%=      5-min Rain = 0
KMC4 201340Z 15011KT 26/19 A2996 RMK A01 T02620185  RH  062%=      5-min Rain = 0
KMC4 201341Z 14011KT 26/19 A2996 RMK A01 T02630185  RH  062%=      5-min Rain = 0
KMC4 201342Z 14011KT 26/19 A2996 RMK A01 T02630186  RH  062%=      5-min Rain = 0
KMC4 201343Z 14010KT 26/19 A2996 RMK A01 T02640186  RH  062%=      5-min Rain = 0
KMC4 201344Z 15012KT 27/19 A2996 RMK A01 T02650186  RH  062%=      5-min Rain = 0
KMC4 201345Z 15014KT 27/19 A2996 RMK A01 T02650186  RH  062%=      5-min Rain = 0
KMC4 201346Z 15012KT 26/19 A2996 RMK A01 T02640186  RH  062%=      5-min Rain = 0
KMC4 201347Z 13013G18KT 26/19 A2996 RMK A01 T02640187  RH  062%=      5-min Rain = 0
KMC4 201348Z 14014KT 27/19 A2996 RMK A01 T02650187  RH  062%=      5-min Rain = 0
KMC4 201349Z 15014KT 27/19 A2996 RMK A01 T02650186  RH  062%=      5-min Rain = 0
KMC4 201350Z 15015KT 27/19 A2996 RMK A01 T02650187  RH  062%=      5-min Rain = 0
KMC4 201351Z 15014KT 27/19 A2996 RMK A01 T02650186  RH  062%=      5-min Rain = 0
KMC4 201352Z 14013KT 26/19 A2996 RMK A01 T02630186  RH  062%=      5-min Rain = 0
KMC4 201353Z 13012KT 26/19 A2996 RMK A01 T02640186  RH  062%=      5-min Rain = 0
KMC4 201354Z 14013KT 27/19 A2996 RMK A01 T02650187  RH  062%=      5-min Rain = 0
KMC4 201355Z 14013KT 27/19 A2996 RMK A01 T02670187  RH  062%=      5-min Rain = 0
KMC4 201356Z 15013KT 27/19 A2996 RMK A01 T02670187  RH  062%=      5-min Rain = 0
KMC4 201357Z 14012KT 27/19 A2996 RMK A01 T02670187  RH  062%=      5-min Rain = 0
KMC4 201358Z 15014KT 27/19 A2996 RMK A01 T02670187  RH  062%=      5-min Rain = 0
KMC4 201359Z 15011KT 27/19 A2996 RMK A01 T02660187  RH  062%=      5-min Rain = 0
KMC4 201400Z 15012KT 27/19 A2996 RMK A01 T02660188  RH  062%=      5-min Rain = 0
KMC4 201401Z 14014KT 27/19 A2996 RMK A01 T02670187  RH  062%=      5-min Rain = 0
KMC4 201402Z 14014KT 27/19 A2996 RMK A01 T02680187  RH  061%=      5-min Rain = 0
KMC4 201403Z 15014KT 27/19 A2996 RMK A01 T02670188  RH  062%=      5-min Rain = 0
KMC4 201404Z 16014KT 27/19 A2996 RMK A01 T02670188  RH  062%=      5-min Rain = 0
KMC4 201405Z 15012KT 27/19 A2996 RMK A01 T02660188  RH  062%=      5-min Rain = 0
KMC4 201406Z 15012KT 27/19 A2996 RMK A01 T02670188  RH  062%=      5-min Rain = 0
KMC4 201407Z 15013KT 27/19 A2996 RMK A01 T02680188  RH  062%=      5-min Rain = 0
KMC4 201408Z 16012KT 27/19 A2996 RMK A01 T02680188  RH  061%=      5-min Rain = 0
KMC4 201409Z 17013KT 27/19 A2997 RMK A01 T02670188  RH  062%=      5-min Rain = 0
KMC4 201410Z 15012KT 27/19 A2997 RMK A01 T02670188  RH  062%=      5-min Rain = 0
KMC4 201411Z 16011KT 27/19 A2997 RMK A01 T02680189  RH  062%=      5-min Rain = 0
KMC4 201412Z 17011KT 27/19 A2997 RMK A01 T02680188  RH  062%=      5-min Rain = 0
KMC4 201413Z 15013KT 27/19 A2997 RMK A01 T02680189  RH  062%=      5-min Rain = 0
KMC4 201414Z 13012KT 27/19 A2997 RMK A01 T02680188  RH  062%=      5-min Rain = 0
KMC4 201415Z 13012KT 27/19 A2997 RMK A01 T02680188  RH  062%=      5-min Rain = 0
KMC4 201416Z 14013KT 27/19 A2997 RMK A01 T02690189  RH  061%=      5-min Rain = 0
KMC4 201417Z 14013KT 27/19 A2997 RMK A01 T02700189  RH  061%=      5-min Rain = 0
KMC4 201418Z 15010KT 27/19 A2997 RMK A01 T02700189  RH  061%=      5-min Rain = 0
KMC4 201419Z 15011KT 27/19 A2997 RMK A01 T02700190  RH  061%=      5-min Rain = 0
KMC4 201420Z 15011KT 27/19 A2997 RMK A01 T02710189  RH  061%=      5-min Rain = 0
KMC4 201421Z 15011KT 27/19 A2997 RMK A01 T02720190  RH  061%=      5-min Rain = 0
KMC4 201422Z 15011KT 27/19 A2997 RMK A01 T02730189  RH  060%=      5-min Rain = 0
KMC4 201423Z 14013KT 27/19 A2997 RMK A01 T02720190  RH  061%=      5-min Rain = 0
KMC4 201424Z 15014KT 27/19 A2997 RMK A01 T02710189  RH  061%=      5-min Rain = 0
KMC4 201425Z 14012KT 27/19 A2997 RMK A01 T02720189  RH  060%=      5-min Rain = 0
KMC4 201426Z 14011KT 27/19 A2997 RMK A01 T02720190  RH  061%=      5-min Rain = 0
KMC4 201427Z 15009KT 27/19 A2997 RMK A01 T02730190  RH  060%=      5-min Rain = 0
KMC4 201428Z 14012KT 28/19 A2997 RMK A01 T02750190  RH  060%=      5-min Rain = 0
KMC4 201429Z 15011KT 28/19 A2997 RMK A01 T02750190  RH  060%=      5-min Rain = 0
KMC4 201430Z 16010KT 28/19 A2997 RMK A01 T02750190  RH  060%=      5-min Rain = 0
KMC4 201431Z 14012KT 27/19 A2997 RMK A01 T02740190  RH  060%=      5-min Rain = 0
KMC4 201432Z 14010KT 28/19 A2997 RMK A01 T02750190  RH  060%=      5-min Rain = 0
KMC4 201433Z 14014KT 28/19 A2997 RMK A01 T02750190  RH  060%=      5-min Rain = 0
KMC4 201434Z 15012KT 28/19 A2997 RMK A01 T02750190  RH  060%=      5-min Rain = 0
KMC4 201435Z 15009KT 28/19 A2997 RMK A01 T02750189  RH  060%=      5-min Rain = 0
KMC4 201436Z 15011KT 28/19 A2997 RMK A01 T02750191  RH  060%=      5-min Rain = 0
KMC4 201437Z 15011KT 28/19 A2997 RMK A01 T02760190  RH  059%=      5-min Rain = 0
KMC4 201438Z 15011KT 28/19 A2997 RMK A01 T02760191  RH  060%=      5-min Rain = 0
KMC4 201439Z 14010KT 28/19 A2997 RMK A01 T02750190  RH  060%=      5-min Rain = 0
KMC4 201440Z 14011KT 28/19 A2997 RMK A01 T02750190  RH  060%=      5-min Rain = 0
KMC4 201441Z 15010KT 28/19 A2997 RMK A01 T02760191  RH  060%=      5-min Rain = 0
KMC4 201442Z 14010KT 28/19 A2997 RMK A01 T02780192  RH  060%=      5-min Rain = 0
KMC4 201443Z 14012KT 28/19 A2997 RMK A01 T02800193  RH  059%=      5-min Rain = 0
KMC4 201444Z 14012KT 28/19 A2997 RMK A01 T02810192  RH  058%=      5-min Rain = 0
KMC4 201445Z 13010KT 28/19 A2997 RMK A01 T02810192  RH  058%=      5-min Rain = 0
KMC4 201446Z 14010KT 28/19 A2997 RMK A01 T02810191  RH  058%=      5-min Rain = 0
KMC4 201447Z 15011KT 28/19 A2997 RMK A01 T02800192  RH  059%=      5-min Rain = 0
KMC4 201448Z 14010KT 28/19 A2997 RMK A01 T02800192  RH  059%=      5-min Rain = 0
KMC4 201449Z 13011KT 28/19 A2997 RMK A01 T02810192  RH  059%=      5-min Rain = 0
KMC4 201450Z 14012KT 28/19 A2997 RMK A01 T02830192  RH  058%=      5-min Rain = 0
KMC4 201451Z 14014KT 28/19 A2997 RMK A01 T02830192  RH  058%=      5-min Rain = 0
KMC4 201452Z 13011KT 28/19 A2997 RMK A01 T02820191  RH  058%=      5-min Rain = 0
KMC4 201453Z 13007KT 28/19 A2997 RMK A01 T02810192  RH  058%=      5-min Rain = 0
KMC4 201454Z 14009KT 28/19 A2997 RMK A01 T02820194  RH  059%=      5-min Rain = 0
KMC4 201455Z 14012KT 29/19 A2997 RMK A01 T02850193  RH  058%=      5-min Rain = 0
KMC4 201456Z 13013KT 29/19 A2997 RMK A01 T02860193  RH  057%=      5-min Rain = 0
KMC4 201457Z 15013KT 29/19 A2997 RMK A01 T02860192  RH  057%=      5-min Rain = 0
KMC4 201458Z 15011KT 29/19 A2997 RMK A01 T02850193  RH  058%=      5-min Rain = 0
KMC4 201459Z 13011KT 28/19 A2997 RMK A01 T02830194  RH  058%=      5-min Rain = 0
KMC4 201500Z 13011KT 29/19 A2997 RMK A01 T02850194  RH  058%=      5-min Rain = 0
KMC4 201501Z 12011KT 29/19 A2997 RMK A01 T02860193  RH  057%=      5-min Rain = 0
KMC4 201502Z 14012KT 29/19 A2997 RMK A01 T02860192  RH  057%=      5-min Rain = 0
KMC4 201503Z 15009KT 29/19 A2997 RMK A01 T02860191  RH  056%=      5-min Rain = 0
KMC4 201504Z 14011KT 29/19 A2997 RMK A01 T02860190  RH  056%=      5-min Rain = 0
KMC4 201505Z 13011KT 29/19 A2997 RMK A01 T02870192  RH  056%=      5-min Rain = 0
KMC4 201506Z 13013KT 29/19 A2997 RMK A01 T02870193  RH  057%=      5-min Rain = 0
KMC4 201507Z 13012KT 29/19 A2997 RMK A01 T02880193  RH  056%=      5-min Rain = 0
KMC4 201508Z 12011KT 29/19 A2997 RMK A01 T02880192  RH  056%=      5-min Rain = 0
KMC4 201509Z 13012KT 29/19 A2996 RMK A01 T02880192  RH  056%=      5-min Rain = 0
KMC4 201510Z 15013KT 29/19 A2996 RMK A01 T02880192  RH  056%=      5-min Rain = 0
KMC4 201511Z 15012KT 29/19 A2996 RMK A01 T02870192  RH  056%=      5-min Rain = 0
KMC4 201512Z 13013KT 28/19 A2996 RMK A01 T02840191  RH  057%=      5-min Rain = 0
KMC4 201513Z 13013KT 29/19 A2996 RMK A01 T02850191  RH  057%=      5-min Rain = 0
KMC4 201514Z 13012KT 29/19 A2997 RMK A01 T02860191  RH  056%=      5-min Rain = 0
KMC4 201515Z 14013KT 29/19 A2996 RMK A01 T02870192  RH  056%=      5-min Rain = 0
KMC4 201516Z 14009KT 29/19 A2997 RMK A01 T02870193  RH  057%=      5-min Rain = 0
KMC4 201517Z 14009KT 29/19 A2997 RMK A01 T02900194  RH  056%=      5-min Rain = 0
KMC4 201518Z 14013KT 29/20 A2996 RMK A01 T02920195  RH  056%=      5-min Rain = 0
KMC4 201519Z 14011KT 29/19 A2997 RMK A01 T02920194  RH  056%=      5-min Rain = 0
KMC4 201520Z 13011KT 29/20 A2996 RMK A01 T02910195  RH  056%=      5-min Rain = 0
KMC4 201521Z 13013KT 29/19 A2996 RMK A01 T02910194  RH  056%=      5-min Rain = 0
KMC4 201522Z 12012KT 29/19 A2996 RMK A01 T02910193  RH  056%=      5-min Rain = 0
KMC4 201523Z 13012KT 29/19 A2996 RMK A01 T02910193  RH  056%=      5-min Rain = 0
KMC4 201524Z 13011KT 29/20 A2996 RMK A01 T02930195  RH  056%=      5-min Rain = 0
KMC4 201525Z 13014KT 30/19 A2996 RMK A01 T02960194  RH  054%=      5-min Rain = 0
KMC4 201526Z 13013KT 30/19 A2996 RMK A01 T02960193  RH  054%=      5-min Rain = 0
KMC4 201527Z 14011KT 29/19 A2996 RMK A01 T02940194  RH  055%=      5-min Rain = 0
KMC4 201528Z 14010KT 29/20 A2996 RMK A01 T02940195  RH  055%=      5-min Rain = 0
KMC4 201529Z 13011KT 29/20 A2996 RMK A01 T02940195  RH  055%=      5-min Rain = 0
KMC4 201530Z 15012KT 30/20 A2996 RMK A01 T02950195  RH  055%=      5-min Rain = 0
KMC4 201531Z 15013KT 30/19 A2996 RMK A01 T02960192  RH  053%=      5-min Rain = 0
KMC4 201532Z 16012KT 30/19 A2996 RMK A01 T02950191  RH  054%=      5-min Rain = 0
KMC4 201533Z 15012KT 29/19 A2996 RMK A01 T02930191  RH  054%=      5-min Rain = 0
KMC4 201534Z 13013KT 29/19 A2996 RMK A01 T02930192  RH  054%=      5-min Rain = 0
KMC4 201535Z 13012KT 30/19 A2996 RMK A01 T02950192  RH  054%=      5-min Rain = 0
KMC4 201536Z 15011KT 30/19 A2996 RMK A01 T02950192  RH  054%=      5-min Rain = 0
KMC4 201537Z 16009KT 30/19 A2996 RMK A01 T02950191  RH  054%=      5-min Rain = 0
KMC4 201538Z 13011KT 30/19 A2996 RMK A01 T02960194  RH  054%=      5-min Rain = 0
KMC4 201539Z 14010KT 30/19 A2996 RMK A01 T02980194  RH  054%=      5-min Rain = 0
KMC4 201540Z 15008KT 30/20 A2997 RMK A01 T02980195  RH  054%=      5-min Rain = 0
KMC4 201541Z 16011KT 30/19 A2997 RMK A01 T03000194  RH  053%=      5-min Rain = 0
KMC4 201542Z 15010KT 30/19 A2996 RMK A01 T03000194  RH  053%=      5-min Rain = 0
KMC4 201543Z 14014KT 30/19 A2996 RMK A01 T03010194  RH  052%=      5-min Rain = 0
KMC4 201544Z 17011KT 30/19 A2997 RMK A01 T03000194  RH  053%=      5-min Rain = 0
KMC4 201545Z 16010KT 30/19 A2997 RMK A01 T03000193  RH  053%=      5-min Rain = 0
KMC4 201546Z 15010KT 30/19 A2997 RMK A01 T02980192  RH  053%=      5-min Rain = 0
KMC4 201547Z 14010KT 30/19 A2997 RMK A01 T02990192  RH  053%=      5-min Rain = 0
KMC4 201548Z 16013KT 30/19 A2996 RMK A01 T02990192  RH  053%=      5-min Rain = 0
KMC4 201549Z 15013KT 30/19 A2997 RMK A01 T02980193  RH  053%=      5-min Rain = 0
KMC4 201550Z 16010KT 30/19 A2996 RMK A01 T02970194  RH  054%=      5-min Rain = 0
KMC4 201551Z 16009KT 30/19 A2996 RMK A01 T02970194  RH  054%=      5-min Rain = 0
KMC4 201552Z 13011KT 30/19 A2996 RMK A01 T02980192  RH  053%=      5-min Rain = 0
KMC4 201553Z 15013KT 30/19 A2996 RMK A01 T03000192  RH  053%=      5-min Rain = 0
KMC4 201554Z 16012KT 30/19 A2996 RMK A01 T03010194  RH  052%=      5-min Rain = 0
KMC4 201555Z 15011KT 30/19 A2996 RMK A01 T03010194  RH  053%=      5-min Rain = 0
KMC4 201556Z 15008KT 30/19 A2996 RMK A01 T03000193  RH  053%=      5-min Rain = 0
KMC4 201557Z 14007KT 30/19 A2996 RMK A01 T02980192  RH  053%=      5-min Rain = 0
KMC4 201558Z 15010KT 30/19 A2996 RMK A01 T02990192  RH  053%=      5-min Rain = 0
KMC4 201559Z 15010KT 30/19 A2996 RMK A01 T03010193  RH  053%=      5-min Rain = 0
KMC4 201600Z 15008KT 30/19 A2996 RMK A01 T03020193  RH  052%=      5-min Rain = 0
KMC4 201601Z 14011G18KT 30/19 A2996 RMK A01 T03020194  RH  052%=      5-min Rain = 0
KMC4 201602Z 19010KT 30/19 A2996 RMK A01 T03040191  RH  051%=      5-min Rain = 0
KMC4 201603Z 17009KT 30/19 A2996 RMK A01 T03040192  RH  051%=      5-min Rain = 0
KMC4 201604Z 16013KT 31/19 A2996 RMK A01 T03050194  RH  052%=      5-min Rain = 0
KMC4 201605Z 16012KT 30/20 A2996 RMK A01 T03040195  RH  052%=      5-min Rain = 0
KMC4 201606Z 17008KT 30/20 A2996 RMK A01 T03020195  RH  053%=      5-min Rain = 0
KMC4 201607Z 15009KT 30/20 A2996 RMK A01 T03020196  RH  053%=      5-min Rain = 0
KMC4 201608Z 15013KT 31/20 A2996 RMK A01 T03050195  RH  052%=      5-min Rain = 0
KMC4 201609Z 16012KT 31/19 A2996 RMK A01 T03070194  RH  051%=      5-min Rain = 0
KMC4 201610Z 18007KT 31/19 A2996 RMK A01 T03060193  RH  051%=      5-min Rain = 0
KMC4 201611Z 14006KT 30/19 A2996 RMK A01 T03040194  RH  052%=      5-min Rain = 0
KMC4 201612Z 16009KT 31/20 A2996 RMK A01 T03060196  RH  052%=      5-min Rain = 0
KMC4 201613Z 16011KT 31/19 A2996 RMK A01 T03070193  RH  051%=      5-min Rain = 0
KMC4 201614Z 15010KT 31/19 A2996 RMK A01 T03070190  RH  050%=      5-min Rain = 0
KMC4 201615Z 14012KT 31/19 A2996 RMK A01 T03070192  RH  050%=      5-min Rain = 0
KMC4 201616Z 16011KT 31/19 A2996 RMK A01 T03080193  RH  050%=      5-min Rain = 0
KMC4 201617Z 16008KT 31/19 A2996 RMK A01 T03070192  RH  050%=      5-min Rain = 0
KMC4 201618Z 15010KT 31/19 A2996 RMK A01 T03070193  RH  051%=      5-min Rain = 0
KMC4 201619Z 14011KT 31/19 A2996 RMK A01 T03090192  RH  050%=      5-min Rain = 0
KMC4 201620Z 15012KT 31/19 A2996 RMK A01 T03110191  RH  049%=      5-min Rain = 0
KMC4 201621Z 16012KT 31/19 A2996 RMK A01 T03110191  RH  049%=      5-min Rain = 0
KMC4 201622Z 15013KT 31/19 A2996 RMK A01 T03110192  RH  049%=      5-min Rain = 0
KMC4 201623Z 14010KT 31/19 A2996 RMK A01 T03110194  RH  050%=      5-min Rain = 0
KMC4 201624Z 13012KT 31/19 A2996 RMK A01 T03110194  RH  050%=      5-min Rain = 0
KMC4 201625Z 13010KT 31/19 A2996 RMK A01 T03110191  RH  049%=      5-min Rain = 0
KMC4 201626Z 15011KT 31/19 A2996 RMK A01 T03120193  RH  049%=      5-min Rain = 0
KMC4 201627Z 14013KT 31/19 A2996 RMK A01 T03120192  RH  049%=      5-min Rain = 0
KMC4 201628Z 14012KT 31/19 A2996 RMK A01 T03120193  RH  049%=      5-min Rain = 0
KMC4 201629Z 15011KT 31/19 A2996 RMK A01 T03140193  RH  049%=      5-min Rain = 0
KMC4 201630Z 15010KT 31/19 A2996 RMK A01 T03140194  RH  049%=      5-min Rain = 0
KMC4 201631Z 12008KT 31/19 A2996 RMK A01 T03140194  RH  049%=      5-min Rain = 0
KMC4 201632Z 14012KT 32/20 A2996 RMK A01 T03150195  RH  049%=      5-min Rain = 0
KMC4 201633Z 15010KT 32/19 A2996 RMK A01 T03190193  RH  047%=      5-min Rain = 0
KMC4 201634Z 17008KT 32/19 A2996 RMK A01 T03210193  RH  047%=      5-min Rain = 0
KMC4 201635Z 16010KT 32/19 A2996 RMK A01 T03200193  RH  047%=      5-min Rain = 0
KMC4 201636Z 15009KT 32/19 A2996 RMK A01 T03180193  RH  048%=      5-min Rain = 0
KMC4 201637Z 14012KT 32/19 A2996 RMK A01 T03180192  RH  047%=      5-min Rain = 0
KMC4 201638Z 13008KT 32/19 A2996 RMK A01 T03180192  RH  047%=      5-min Rain = 0
KMC4 201639Z 14008KT 32/19 A2996 RMK A01 T03190194  RH  048%=      5-min Rain = 0
KMC4 201640Z 14012KT 32/20 A2996 RMK A01 T03220195  RH  047%=      5-min Rain = 0
KMC4 201641Z 14012KT 32/19 A2996 RMK A01 T03240194  RH  046%=      5-min Rain = 0
KMC4 201642Z 14011KT 33/19 A2996 RMK A01 T03250193  RH  046%=      5-min Rain = 0
KMC4 201643Z 15011KT 32/19 A2996 RMK A01 T03220192  RH  046%=      5-min Rain = 0
KMC4 201644Z 15010KT 32/19 A2996 RMK A01 T03200193  RH  047%=      5-min Rain = 0
KMC4 201645Z 15010KT 32/19 A2996 RMK A01 T03200193  RH  047%=      5-min Rain = 0
KMC4 201646Z 16011KT 32/20 A2996 RMK A01 T03210195  RH  047%=      5-min Rain = 0
KMC4 201647Z 16011KT 32/20 A2996 RMK A01 T03240195  RH  046%=      5-min Rain = 0
KMC4 201648Z 14009KT 32/19 A2996 RMK A01 T03240193  RH  046%=      5-min Rain = 0
KMC4 201649Z 14010KT 32/19 A2996 RMK A01 T03230192  RH  046%=      5-min Rain = 0
KMC4 201650Z 14013KT 32/19 A2996 RMK A01 T03230191  RH  046%=      5-min Rain = 0
KMC4 201651Z 17012KT 32/19 A2996 RMK A01 T03240190  RH  045%=      5-min Rain = 0
KMC4 201652Z 19009KT 32/19 A2996 RMK A01 T03230188  RH  045%=      5-min Rain = 0
KMC4 201653Z 18009KT 32/19 A2996 RMK A01 T03230188  RH  045%=      5-min Rain = 0
KMC4 201654Z 15010KT 32/19 A2996 RMK A01 T03240189  RH  045%=      5-min Rain = 0
KMC4 201655Z 16011KT 33/19 A2996 RMK A01 T03260192  RH  045%=      5-min Rain = 0
KMC4 201656Z 15012KT 33/19 A2996 RMK A01 T03290191  RH  044%=      5-min Rain = 0
KMC4 201657Z 15008KT 33/19 A2996 RMK A01 T03260190  RH  045%=      5-min Rain = 0
KMC4 201658Z 17013KT 33/19 A2996 RMK A01 T03250191  RH  045%=      5-min Rain = 0
KMC4 201659Z 17011KT 32/19 A2996 RMK A01 T03240190  RH  045%=      5-min Rain = 0
KMC4 201700Z 17007KT 32/19 A2996 RMK A01 T03240189  RH  045%=      5-min Rain = 0
KMC4 201701Z 14009KT 33/19 A2996 RMK A01 T03260189  RH  044%=      5-min Rain = 0
KMC4 201702Z 15009KT 33/19 A2996 RMK A01 T03270189  RH  044%=      5-min Rain = 0
KMC4 201703Z 13010KT 33/19 A2996 RMK A01 T03290190  RH  044%=      5-min Rain = 0
KMC4 201704Z 13011KT 33/19 A2996 RMK A01 T03290191  RH  044%=      5-min Rain = 0
KMC4 201705Z 15013KT 33/19 A2996 RMK A01 T03290192  RH  044%=      5-min Rain = 0
KMC4 201706Z 15012KT 33/19 A2996 RMK A01 T03290191  RH  044%=      5-min Rain = 0
KMC4 201707Z 15009KT 33/19 A2996 RMK A01 T03280192  RH  045%=      5-min Rain = 0
KMC4 201708Z 13012G17KT 33/19 A2996 RMK A01 T03300194  RH  045%=      5-min Rain = 0
KMC4 201709Z 15015KT 33/19 A2996 RMK A01 T03340191  RH  043%=      5-min Rain = 0
KMC4 201710Z 16011KT 33/19 A2996 RMK A01 T03340189  RH  042%=      5-min Rain = 0
KMC4 201711Z 15011KT 33/19 A2996 RMK A01 T03300190  RH  043%=      5-min Rain = 0
KMC4 201712Z 14014KT 33/19 A2996 RMK A01 T03300190  RH  044%=      5-min Rain = 0
KMC4 201713Z 13012KT 33/19 A2996 RMK A01 T03310190  RH  043%=      5-min Rain = 0
KMC4 201714Z 15009KT 34/19 A2996 RMK A01 T03350192  RH  043%=      5-min Rain = 0
KMC4 201715Z 16010G18KT 34/19 A2996 RMK A01 T03400194  RH  042%=      5-min Rain = 0
KMC4 201716Z 15010G15KT 34/19 A2995 RMK A01 T03410187  RH  040%=      5-min Rain = 0
KMC4 201717Z 15012KT 34/19 A2995 RMK A01 T03370187  RH  041%=      5-min Rain = 0
KMC4 201718Z 14013KT 34/19 A2995 RMK A01 T03370185  RH  041%=      5-min Rain = 0
KMC4 201719Z 16012KT 34/19 A2995 RMK A01 T03360186  RH  041%=      5-min Rain = 0
KMC4 201720Z 16009KT 34/19 A2995 RMK A01 T03380189  RH  041%=      5-min Rain = 0
KMC4 201721Z 16012KT 34/19 A2995 RMK A01 T03380190  RH  042%=      5-min Rain = 0
KMC4 201722Z 18012KT 34/19 A2995 RMK A01 T03390188  RH  041%=      5-min Rain = 0
KMC4 201723Z 18013KT 34/19 A2995 RMK A01 T03360188  RH  042%=      5-min Rain = 0
KMC4 201724Z 17012KT 34/19 A2995 RMK A01 T03360189  RH  042%=      5-min Rain = 0
KMC4 201725Z 17013KT 34/19 A2995 RMK A01 T03370186  RH  041%=      5-min Rain = 0
KMC4 201726Z 17012KT 34/19 A2995 RMK A01 T03370187  RH  041%=      5-min Rain = 0
KMC4 201727Z 17011KT 34/19 A2995 RMK A01 T03360185  RH  041%=      5-min Rain = 0
KMC4 201728Z 17013KT 33/19 A2995 RMK A01 T03340186  RH  042%=      5-min Rain = 0
KMC4 201729Z 17012KT 34/19 A2995 RMK A01 T03350185  RH  041%=      5-min Rain = 0
KMC4 201730Z 16010KT 33/19 A2995 RMK A01 T03330187  RH  042%=      5-min Rain = 0
KMC4 201731Z 18011KT 33/19 A2995 RMK A01 T03330186  RH  042%=      5-min Rain = 0
KMC4 201732Z 17011KT 33/19 A2995 RMK A01 T03340185  RH  042%=      5-min Rain = 0
KMC4 201733Z 15009KT 34/19 A2995 RMK A01 T03350185  RH  041%=      5-min Rain = 0
KMC4 201734Z 14011KT 34/18 A2995 RMK A01 T03380184  RH  040%=      5-min Rain = 0
KMC4 201735Z 16012KT 34/19 A2995 RMK A01 T03390186  RH  040%=      5-min Rain = 0
KMC4 201736Z 16011KT 34/19 A2995 RMK A01 T03390185  RH  040%=      5-min Rain = 0
KMC4 201737Z 13011KT 34/19 A2995 RMK A01 T03380185  RH  040%=      5-min Rain = 0
KMC4 201738Z 15011KT 34/19 A2995 RMK A01 T03400188  RH  041%=      5-min Rain = 0
KMC4 201739Z 15011KT 35/19 A2995 RMK A01 T03450189  RH  040%=      5-min Rain = 0
KMC4 201740Z 16011KT 35/19 A2995 RMK A01 T03480189  RH  039%=      5-min Rain = 0
KMC4 201741Z 14012KT 35/19 A2995 RMK A01 T03490189  RH  039%=      5-min Rain = 0
KMC4 201742Z 15009KT 35/19 A2995 RMK A01 T03490188  RH  039%=      5-min Rain = 0
KMC4 201743Z 15014G22KT 35/19 A2995 RMK A01 T03480189  RH  039%=      5-min Rain = 0
KMC4 201744Z 16011KT 35/19 A2995 RMK A01 T03470186  RH  039%=      5-min Rain = 0
KMC4 201745Z 15010KT 35/19 A2995 RMK A01 T03450187  RH  039%=      5-min Rain = 0
KMC4 201746Z 15010KT 35/18 A2995 RMK A01 T03450184  RH  039%=      5-min Rain = 0
KMC4 201747Z 15011KT 35/18 A2995 RMK A01 T03450184  RH  039%=      5-min Rain = 0
KMC4 201748Z 17013KT 35/18 A2995 RMK A01 T03460184  RH  039%=      5-min Rain = 0
KMC4 201749Z 17014KT 34/19 A2995 RMK A01 T03440185  RH  039%=      5-min Rain = 0
KMC4 201750Z 16013KT 34/19 A2995 RMK A01 T03440185  RH  039%=      5-min Rain = 0
KMC4 201751Z 17013KT 35/19 A2995 RMK A01 T03450186  RH  039%=      5-min Rain = 0
KMC4 201752Z 17013KT 35/19 A2995 RMK A01 T03460185  RH  039%=      5-min Rain = 0
KMC4 201753Z 15009KT 34/18 A2995 RMK A01 T03440182  RH  038%=      5-min Rain = 0
KMC4 201754Z 14012KT 34/18 A2995 RMK A01 T03430182  RH  039%=      5-min Rain = 0
KMC4 201755Z 15012KT 34/18 A2995 RMK A01 T03430182  RH  039%=      5-min Rain = 0
KMC4 201756Z 18010KT 34/18 A2994 RMK A01 T03420184  RH  039%=      5-min Rain = 0
KMC4 201757Z 14009KT 34/19 A2994 RMK A01 T03420187  RH  040%=      5-min Rain = 0
KMC4 201758Z 13012KT 35/19 A2994 RMK A01 T03450186  RH  039%=      5-min Rain = 0
KMC4 201759Z 13014KT 35/19 A2994 RMK A01 T03490187  RH  039%=      5-min Rain = 0
KMC4 201800Z 15012KT 35/19 A2994 RMK A01 T03490187  RH  038%=      5-min Rain = 0
KMC4 201801Z 17013KT 35/19 A2994 RMK A01 T03510188  RH  038%=      5-min Rain = 0
KMC4 201802Z 18013KT 35/19 A2994 RMK A01 T03520186  RH  038%=      5-min Rain = 0
KMC4 201803Z 16013KT 35/18 A2994 RMK A01 T03490184  RH  038%=      5-min Rain = 0
KMC4 201804Z 16012KT 35/18 A2994 RMK A01 T03460183  RH  038%=      5-min Rain = 0
KMC4 201805Z 15013KT 35/19 A2994 RMK A01 T03460185  RH  039%=      5-min Rain = 0
KMC4 201806Z 15011KT 35/18 A2994 RMK A01 T03490183  RH  038%=      5-min Rain = 0
KMC4 201807Z 15010KT 35/18 A2994 RMK A01 T03490183  RH  038%=      5-min Rain = 0
KMC4 201808Z 15013KT 35/18 A2994 RMK A01 T03500184  RH  038%=      5-min Rain = 0
KMC4 201809Z 16014KT 35/18 A2994 RMK A01 T03510183  RH  037%=      5-min Rain = 0
KMC4 201810Z 16013KT 35/19 A2994 RMK A01 T03500185  RH  038%=      5-min Rain = 0
KMC4 201811Z 17011KT 35/19 A2994 RMK A01 T03530185  RH  037%=      5-min Rain = 0
KMC4 201812Z 17008KT 35/19 A2994 RMK A01 T03530185  RH  037%=      5-min Rain = 0
KMC4 201813Z 17012KT 35/19 A2994 RMK A01 T03530185  RH  037%=      5-min Rain = 0
KMC4 201814Z 15015KT 35/18 A2994 RMK A01 T03530184  RH  037%=      5-min Rain = 0
KMC4 201815Z 15012KT 35/19 A2994 RMK A01 T03540185  RH  037%=      5-min Rain = 0
KMC4 201816Z 16011KT 36/19 A2994 RMK A01 T03550185  RH  037%=      5-min Rain = 0
KMC4 201817Z 17012KT 36/19 A2994 RMK A01 T03550185  RH  037%=      5-min Rain = 0
KMC4 201818Z 17012KT 36/18 A2994 RMK A01 T03550184  RH  037%=      5-min Rain = 0
KMC4 201819Z 16010KT 35/18 A2994 RMK A01 T03510184  RH  037%=      5-min Rain = 0
KMC4 201820Z 17008KT 35/19 A2994 RMK A01 T03510186  RH  038%=      5-min Rain = 0
KMC4 201821Z 17011G16KT 36/19 A2994 RMK A01 T03550187  RH  037%=      5-min Rain = 0
KMC4 201822Z 16015KT 36/18 A2994 RMK A01 T03560184  RH  036%=      5-min Rain = 0
KMC4 201823Z 16012KT 35/18 A2994 RMK A01 T03520183  RH  037%=      5-min Rain = 0
KMC4 201824Z 15012KT 35/18 A2994 RMK A01 T03510184  RH  037%=      5-min Rain = 0
KMC4 201825Z 14011KT 35/18 A2994 RMK A01 T03510184  RH  037%=      5-min Rain = 0
KMC4 201826Z 13011KT 35/18 A2994 RMK A01 T03530183  RH  037%=      5-min Rain = 0
KMC4 201827Z 16009KT 35/18 A2994 RMK A01 T03530182  RH  037%=      5-min Rain = 0
KMC4 201828Z 18011KT 35/18 A2994 RMK A01 T03530184  RH  037%=      5-min Rain = 0
KMC4 201829Z 17012KT 35/18 A2994 RMK A01 T03540184  RH  037%=      5-min Rain = 0
KMC4 201830Z 17013KT 36/19 A2994 RMK A01 T03590188  RH  037%=      5-min Rain = 0
KMC4 201831Z 17011KT 36/18 A2994 RMK A01 T03600184  RH  036%=      5-min Rain = 0
KMC4 201832Z 16011KT 36/18 A2994 RMK A01 T03560184  RH  036%=      5-min Rain = 0
KMC4 201833Z 18009KT 36/18 A2994 RMK A01 T03560184  RH  036%=      5-min Rain = 0
KMC4 201834Z 17009KT 36/19 A2993 RMK A01 T03570185  RH  037%=      5-min Rain = 0
KMC4 201835Z 17009KT 36/18 A2993 RMK A01 T03570183  RH  036%=      5-min Rain = 0
KMC4 201836Z 16013KT 36/18 A2993 RMK A01 T03560183  RH  036%=      5-min Rain = 0
KMC4 201837Z 16014KT 36/18 A2993 RMK A01 T03560182  RH  036%=      5-min Rain = 0
KMC4 201838Z 18011KT 35/18 A2993 RMK A01 T03540180  RH  036%=      5-min Rain = 0
KMC4 201839Z 19012KT 35/18 A2993 RMK A01 T03530180  RH  036%=      5-min Rain = 0
KMC4 201840Z 18012KT 36/18 A2993 RMK A01 T03550181  RH  036%=      5-min Rain = 0
KMC4 201841Z 18012KT 36/18 A2993 RMK A01 T03570182  RH  036%=      5-min Rain = 0
KMC4 201842Z 17012G17KT 36/18 A2993 RMK A01 T03580184  RH  036%=      5-min Rain = 0
KMC4 201843Z 18010KT 36/18 A2993 RMK A01 T03570181  RH  036%=      5-min Rain = 0
KMC4 201844Z 17010KT 36/18 A2993 RMK A01 T03560182  RH  036%=      5-min Rain = 0
KMC4 201845Z 18010KT 35/18 A2993 RMK A01 T03530181  RH  036%=      5-min Rain = 0
KMC4 201846Z 18010KT 35/18 A2993 RMK A01 T03520181  RH  036%=      5-min Rain = 0
KMC4 201847Z 18009KT 35/18 A2993 RMK A01 T03530180  RH  036%=      5-min Rain = 0
KMC4 201848Z 17012KT 35/18 A2993 RMK A01 T03540181  RH  036%=      5-min Rain = 0
KMC4 201849Z 17014KT 36/18 A2993 RMK A01 T03580183  RH  036%=      5-min Rain = 0
KMC4 201850Z 17013KT 36/18 A2993 RMK A01 T03590183  RH  035%=      5-min Rain = 0
KMC4 201851Z 17013KT 36/18 A2993 RMK A01 T03580184  RH  036%=      5-min Rain = 0
KMC4 201852Z 16014KT 36/18 A2993 RMK A01 T03580183  RH  036%=      5-min Rain = 0
KMC4 201853Z 15012KT 36/18 A2993 RMK A01 T03580183  RH  036%=      5-min Rain = 0
KMC4 201854Z 15011KT 36/18 A2993 RMK A01 T03580182  RH  036%=      5-min Rain = 0
KMC4 201855Z 17012KT 36/18 A2993 RMK A01 T03580182  RH  036%=      5-min Rain = 0
KMC4 201856Z 16014G19KT 36/18 A2993 RMK A01 T03600184  RH  036%=      5-min Rain = 0
KMC4 201857Z 16014KT 36/18 A2993 RMK A01 T03640181  RH  034%=      5-min Rain = 0
KMC4 201858Z 17011KT 36/18 A2993 RMK A01 T03610180  RH  035%=      5-min Rain = 0
KMC4 201859Z 16012KT 36/18 A2993 RMK A01 T03590180  RH  035%=      5-min Rain = 0
KMC4 201900Z 15009KT 36/18 A2993 RMK A01 T03590180  RH  035%=      5-min Rain = 0
KMC4 201901Z 16009KT 36/18 A2993 RMK A01 T03600179  RH  035%=      5-min Rain = 0
KMC4 201902Z 15015G20KT 36/18 A2992 RMK A01 T03630182  RH  034%=      5-min Rain = 0
KMC4 201903Z 14015KT 36/18 A2992 RMK A01 T03620182  RH  035%=      5-min Rain = 0
KMC4 201904Z 15014KT 36/18 A2992 RMK A01 T03630182  RH  034%=      5-min Rain = 0
KMC4 201905Z 14012KT 36/18 A2992 RMK A01 T03630182  RH  035%=      5-min Rain = 0
KMC4 201906Z 14011KT 36/18 A2992 RMK A01 T03630181  RH  034%=      5-min Rain = 0
KMC4 201907Z 14013G19KT 37/18 A2992 RMK A01 T03650181  RH  034%=      5-min Rain = 0
KMC4 201908Z 15012G17KT 37/18 A2992 RMK A01 T03660180  RH  034%=      5-min Rain = 0
KMC4 201909Z 15013KT 37/18 A2992 RMK A01 T03670180  RH  033%=      5-min Rain = 0
KMC4 201910Z 16016G22KT 37/18 A2992 RMK A01 T03680182  RH  034%=      5-min Rain = 0
KMC4 201911Z 16015KT 37/18 A2992 RMK A01 T03670181  RH  034%=      5-min Rain = 0
KMC4 201912Z 15014KT 37/18 A2992 RMK A01 T03650180  RH  034%=      5-min Rain = 0
KMC4 201913Z 15013KT 36/18 A2992 RMK A01 T03630177  RH  034%=      5-min Rain = 0
KMC4 201914Z 15014KT 36/18 A2992 RMK A01 T03620178  RH  034%=      5-min Rain = 0
KMC4 201915Z 16013KT 36/18 A2992 RMK A01 T03620176  RH  034%=      5-min Rain = 0
KMC4 201916Z 15010KT 36/18 A2992 RMK A01 T03590176  RH  034%=      5-min Rain = 0
KMC4 201917Z 16010KT 36/18 A2992 RMK A01 T03580179  RH  035%=      5-min Rain = 0
KMC4 201918Z 15012KT 36/18 A2992 RMK A01 T03600182  RH  035%=      5-min Rain = 0
KMC4 201919Z 15015KT 36/18 A2991 RMK A01 T03640183  RH  035%=      5-min Rain = 0
KMC4 201920Z 15017KT 37/18 A2991 RMK A01 T03660182  RH  034%=      5-min Rain = 0
KMC4 201921Z 14019KT 37/18 A2991 RMK A01 T03660181  RH  034%=      5-min Rain = 0
KMC4 201922Z 15019KT 37/18 A2991 RMK A01 T03660180  RH  034%=      5-min Rain = 0
KMC4 201923Z 15015KT 37/18 A2991 RMK A01 T03660180  RH  034%=      5-min Rain = 0
KMC4 201924Z 14015KT 36/18 A2991 RMK A01 T03640180  RH  034%=      5-min Rain = 0
KMC4 201925Z 15011G16KT 37/18 A2991 RMK A01 T03660179  RH  033%=      5-min Rain = 0
KMC4 201926Z 16011KT 37/18 A2991 RMK A01 T03670180  RH  033%=      5-min Rain = 0
KMC4 201927Z 16015G21KT 37/18 A2991 RMK A01 T03670183  RH  034%=      5-min Rain = 0
KMC4 201928Z 17019KT 37/18 A2991 RMK A01 T03670182  RH  034%=      5-min Rain = 0
KMC4 201929Z 17015KT 37/18 A2991 RMK A01 T03660181  RH  034%=      5-min Rain = 0
KMC4 201930Z 18011KT 37/18 A2991 RMK A01 T03660182  RH  034%=      5-min Rain = 0
KMC4 201931Z 17009KT 37/18 A2991 RMK A01 T03660180  RH  034%=      5-min Rain = 0
KMC4 201932Z 15013G20KT 37/18 A2991 RMK A01 T03670181  RH  034%=      5-min Rain = 0
KMC4 201933Z 17011KT 37/18 A2991 RMK A01 T03690182  RH  033%=      5-min Rain = 0
KMC4 201934Z 16013KT 37/18 A2991 RMK A01 T03690181  RH  033%=      5-min Rain = 0
KMC4 201935Z 15012KT 37/18 A2991 RMK A01 T03690180  RH  033%=      5-min Rain = 0
KMC4 201936Z 18009KT 37/18 A2991 RMK A01 T03680180  RH  033%=      5-min Rain = 0
KMC4 201937Z 16015KT 37/18 A299 RMK A01 T03700183  RH  033%=      5-min Rain = 0
KMC4 201938Z 15016KT 37/18 A2991 RMK A01 T03700183  RH  033%=      5-min Rain = 0
KMC4 201939Z 13013KT 37/18 A2991 RMK A01 T03660183  RH  034%=      5-min Rain = 0
KMC4 201940Z 13015KT 37/18 A2991 RMK A01 T03670182  RH  034%=      5-min Rain = 0
KMC4 201941Z 14013KT 37/18 A2991 RMK A01 T03680182  RH  034%=      5-min Rain = 0
KMC4 201942Z 16015KT 37/19 A2991 RMK A01 T03700185  RH  034%=      5-min Rain = 0
KMC4 201943Z 17015KT 37/18 A2991 RMK A01 T03720183  RH  033%=      5-min Rain = 0
KMC4 201944Z 17014KT 37/18 A2991 RMK A01 T03680182  RH  034%=      5-min Rain = 0
KMC4 201945Z 17014KT 37/18 A299 RMK A01 T03680183  RH  034%=      5-min Rain = 0
KMC4 201946Z 17015KT 37/18 A299 RMK A01 T03690182  RH  033%=      5-min Rain = 0
KMC4 201947Z 17014KT 37/18 A299 RMK A01 T03690181  RH  033%=      5-min Rain = 0
KMC4 201948Z 15016KT 37/18 A299 RMK A01 T03680182  RH  034%=      5-min Rain = 0
KMC4 201949Z 16016KT 37/18 A299 RMK A01 T03680182  RH  034%=      5-min Rain = 0
KMC4 201950Z 16013KT 37/18 A299 RMK A01 T03680182  RH  034%=      5-min Rain = 0
KMC4 201951Z 16011KT 37/19 A299 RMK A01 T03700185  RH  034%=      5-min Rain = 0
KMC4 201952Z 16016G21KT 38/18 A299 RMK A01 T03770184  RH  032%=      5-min Rain = 0
KMC4 201953Z 13015KT 38/18 A299 RMK A01 T03780181  RH  032%=      5-min Rain = 0
KMC4 201954Z 13016KT 38/18 A299 RMK A01 T03780180  RH  031%=      5-min Rain = 0
KMC4 201955Z 13014KT 38/18 A299 RMK A01 T03760178  RH  031%=      5-min Rain = 0
KMC4 201956Z 15013KT 37/18 A299 RMK A01 T03740180  RH  032%=      5-min Rain = 0
KMC4 201957Z 15015KT 38/18 A299 RMK A01 T03770181  RH  032%=      5-min Rain = 0
KMC4 201958Z 15015KT 38/18 A299 RMK A01 T03780180  RH  031%=      5-min Rain = 0
KMC4 201959Z 15016KT 38/18 A299 RMK A01 T03770180  RH  032%=      5-min Rain = 0
KMC4 202000Z 14015KT 38/18 A299 RMK A01 T03760178  RH  031%=      5-min Rain = 0
KMC4 202001Z 14014KT 37/18 A299 RMK A01 T03740176  RH  031%=      5-min Rain = 0
KMC4 202002Z 14014KT 37/18 A299 RMK A01 T03740176  RH  031%=      5-min Rain = 0
KMC4 202003Z 14011KT 38/18 A299 RMK A01 T03750178  RH  032%=      5-min Rain = 0
KMC4 202004Z 15013KT 38/18 A299 RMK A01 T03770180  RH  032%=      5-min Rain = 0
KMC4 202005Z 17010G15KT 38/18 A2989 RMK A01 T03760181  RH  032%=      5-min Rain = 0
KMC4 202006Z 18013G19KT 38/18 A2989 RMK A01 T03750180  RH  032%=      5-min Rain = 0
KMC4 202007Z 17012KT 38/18 A299 RMK A01 T03760181  RH  032%=      5-min Rain = 0
KMC4 202008Z 16014KT 38/18 A2989 RMK A01 T03780182  RH  032%=      5-min Rain = 0
KMC4 202009Z 14015KT 38/18 A299 RMK A01 T03790181  RH  031%=      5-min Rain = 0
KMC4 202010Z 14014KT 38/18 A2989 RMK A01 T03790178  RH  031%=      5-min Rain = 0
KMC4 202011Z 14012KT 38/18 A2989 RMK A01 T03780178  RH  031%=      5-min Rain = 0
KMC4 202012Z 14013KT 38/18 A2989 RMK A01 T03780178  RH  031%=      5-min Rain = 0
KMC4 202013Z 14013G18KT 38/18 A2989 RMK A01 T03800176  RH  030%=      5-min Rain = 0
KMC4 202014Z 14015KT 38/17 A2989 RMK A01 T03790174  RH  030%=      5-min Rain = 0
KMC4 202015Z 14013KT 38/18 A2989 RMK A01 T03760175  RH  031%=      5-min Rain = 0
KMC4 202016Z 15013G20KT 38/18 A2989 RMK A01 T03750177  RH  031%=      5-min Rain = 0
KMC4 202017Z 16014KT 38/18 A2989 RMK A01 T03760177  RH  031%=      5-min Rain = 0
KMC4 202018Z 17011KT 37/18 A2989 RMK A01 T03740179  RH  032%=      5-min Rain = 0
KMC4 202019Z 16012KT 38/18 A2989 RMK A01 T03750180  RH  032%=      5-min Rain = 0
KMC4 202020Z 15014KT 38/18 A2989 RMK A01 T03760180  RH  032%=      5-min Rain = 0
KMC4 202021Z 16014G19KT 38/18 A2989 RMK A01 T03770178  RH  031%=      5-min Rain = 0
KMC4 202022Z 17011KT 37/18 A2989 RMK A01 T03730177  RH  032%=      5-min Rain = 0
KMC4 202023Z 16014KT 37/18 A2989 RMK A01 T03720178  RH  032%=      5-min Rain = 0
KMC4 202024Z 14014KT 37/18 A2989 RMK A01 T03710179  RH  032%=      5-min Rain = 0
KMC4 202025Z 14014KT 37/18 A2989 RMK A01 T03740179  RH  032%=      5-min Rain = 0
KMC4 202026Z 14015KT 38/18 A2989 RMK A01 T03770179  RH  031%=      5-min Rain = 0
KMC4 202027Z 14013KT 38/18 A2989 RMK A01 T03780179  RH  031%=      5-min Rain = 0
KMC4 202028Z 14013KT 38/18 A2989 RMK A01 T03790178  RH  031%=      5-min Rain = 0
KMC4 202029Z 16015KT 38/18 A2989 RMK A01 T03800178  RH  031%=      5-min Rain = 0
KMC4 202030Z 15014KT 38/18 A2989 RMK A01 T03790175  RH  030%=      5-min Rain = 0
KMC4 202031Z 16016G22KT 38/18 A2988 RMK A01 T03760176  RH  031%=      5-min Rain = 0
KMC4 202032Z 15013KT 38/18 A2989 RMK A01 T03750178  RH  032%=      5-min Rain = 0
KMC4 202033Z 15013KT 38/18 A2988 RMK A01 T03790177  RH  031%=      5-min Rain = 0
KMC4 202034Z 15013KT 38/18 A2988 RMK A01 T03820178  RH  030%=      5-min Rain = 0
KMC4 202035Z 15013KT 39/17 A2989 RMK A01 T03850174  RH  029%=      5-min Rain = 0
KMC4 202036Z 14013KT 38/17 A2988 RMK A01 T03820172  RH  029%=      5-min Rain = 0
KMC4 202037Z 16016KT 38/17 A2988 RMK A01 T03810174  RH  030%=      5-min Rain = 0
KMC4 202038Z 17015KT 38/18 A2989 RMK A01 T03820175  RH  030%=      5-min Rain = 0
KMC4 202039Z 17012G18KT 38/18 A2989 RMK A01 T03770175  RH  031%=      5-min Rain = 0
KMC4 202040Z 15013G19KT 38/17 A2989 RMK A01 T03760174  RH  031%=      5-min Rain = 0
KMC4 202041Z 15012KT 38/18 A2989 RMK A01 T03760175  RH  031%=      5-min Rain = 0
KMC4 202042Z 12012KT 38/18 A2988 RMK A01 T03780176  RH  031%=      5-min Rain = 0
KMC4 202043Z 13012KT 38/18 A2988 RMK A01 T03770175  RH  031%=      5-min Rain = 0
KMC4 202044Z 14013G18KT 38/18 A2988 RMK A01 T03780176  RH  031%=      5-min Rain = 0
KMC4 202045Z 17011G18KT 38/17 A2988 RMK A01 T03810174  RH  030%=      5-min Rain = 0
KMC4 202046Z 16015G20KT 38/18 A2988 RMK A01 T03790175  RH  030%=      5-min Rain = 0
KMC4 202047Z 16014KT 38/18 A2989 RMK A01 T03810176  RH  030%=      5-min Rain = 0
KMC4 202048Z 17013KT 38/17 A2989 RMK A01 T03810174  RH  030%=      5-min Rain = 0
KMC4 202049Z 16010KT 38/17 A2989 RMK A01 T03800171  RH  029%=      5-min Rain = 0
KMC4 202050Z 18009KT 38/17 A2988 RMK A01 T03760172  RH  030%=      5-min Rain = 0
KMC4 202051Z 15012KT 38/17 A2988 RMK A01 T03760174  RH  031%=      5-min Rain = 0
KMC4 202052Z 14012KT 38/18 A2988 RMK A01 T03800176  RH  030%=      5-min Rain = 0
KMC4 202053Z 14013KT 38/18 A2988 RMK A01 T03830175  RH  030%=      5-min Rain = 0
KMC4 202054Z 15014KT 38/17 A2988 RMK A01 T03840174  RH  029%=      5-min Rain = 0
KMC4 202055Z 19012KT 38/17 A2988 RMK A01 T03820173  RH  029%=      5-min Rain = 0
KMC4 202056Z 19011KT 38/17 A2988 RMK A01 T03810172  RH  029%=      5-min Rain = 0
KMC4 202057Z 14012KT 38/17 A2988 RMK A01 T03800174  RH  030%=      5-min Rain = 0
KMC4 202058Z 14014KT 38/17 A2988 RMK A01 T03810171  RH  029%=      5-min Rain = 0
KMC4 202059Z 12012G17KT 38/17 A2988 RMK A01 T03820171  RH  029%=      5-min Rain = 0
KMC4 202100Z 12015KT 38/17 A2988 RMK A01 T03820169  RH  029%=      5-min Rain = 0
KMC4 202101Z 13013KT 38/17 A2988 RMK A01 T03820166  RH  028%=      5-min Rain = 0
KMC4 202102Z 14013KT 38/17 A2988 RMK A01 T03800168  RH  029%=      5-min Rain = 0
KMC4 202103Z 14015KT 38/17 A2988 RMK A01 T03820167  RH  028%=      5-min Rain = 0
KMC4 202104Z 14015KT 38/17 A2988 RMK A01 T03820168  RH  029%=      5-min Rain = 0
KMC4 202105Z 15014KT 38/17 A2988 RMK A01 T03810170  RH  029%=      5-min Rain = 0
KMC4 202106Z 15011KT 38/17 A2988 RMK A01 T03830170  RH  029%=      5-min Rain = 0
KMC4 202107Z 14008KT 38/17 A2988 RMK A01 T03800169  RH  029%=      5-min Rain = 0
KMC4 202108Z 14011KT 38/17 A2988 RMK A01 T03780171  RH  030%=      5-min Rain = 0
KMC4 202109Z 15014KT 38/17 A2988 RMK A01 T03810171  RH  029%=      5-min Rain = 0
KMC4 202110Z 17014G19KT 38/17 A2988 RMK A01 T03820170  RH  029%=      5-min Rain = 0
KMC4 202111Z 17014KT 38/17 A2988 RMK A01 T03810169  RH  029%=      5-min Rain = 0
KMC4 202112Z 18012KT 38/17 A2988 RMK A01 T03790167  RH  029%=      5-min Rain = 0
KMC4 202113Z 17015KT 38/17 A2988 RMK A01 T03780168  RH  029%=      5-min Rain = 0
KMC4 202114Z 17013KT 38/17 A2988 RMK A01 T03780167  RH  029%=      5-min Rain = 0
KMC4 202115Z 15010KT 38/17 A2988 RMK A01 T03790170  RH  029%=      5-min Rain = 0
KMC4 202116Z 14010KT 38/17 A2988 RMK A01 T03840169  RH  028%=      5-min Rain = 0
KMC4 202117Z 16012KT 38/17 A2987 RMK A01 T03840170  RH  028%=      5-min Rain = 0
KMC4 202118Z 15014KT 39/17 A2988 RMK A01 T03850169  RH  028%=      5-min Rain = 0
KMC4 202119Z 15011KT 39/17 A2988 RMK A01 T03850167  RH  028%=      5-min Rain = 0
KMC4 202120Z 14011G16KT 39/17 A2987 RMK A01 T03850169  RH  028%=      5-min Rain = 0
KMC4 202121Z 15013KT 39/17 A2988 RMK A01 T03880167  RH  028%=      5-min Rain = 0
KMC4 202122Z 14013KT 39/17 A2988 RMK A01 T03880165  RH  027%=      5-min Rain = 0
KMC4 202123Z 13012KT 39/17 A2987 RMK A01 T03860165  RH  027%=      5-min Rain = 0
KMC4 202124Z 16011KT 39/17 A2987 RMK A01 T03860166  RH  028%=      5-min Rain = 0
KMC4 202125Z 16013KT 39/17 A2987 RMK A01 T03870166  RH  027%=      5-min Rain = 0
KMC4 202126Z 14010KT 38/17 A2987 RMK A01 T03840166  RH  028%=      5-min Rain = 0
KMC4 202127Z 13009KT 38/17 A2987 RMK A01 T03830167  RH  028%=      5-min Rain = 0
KMC4 202128Z 16010KT 38/17 A2987 RMK A01 T03830168  RH  028%=      5-min Rain = 0
KMC4 202129Z 16011KT 39/17 A2987 RMK A01 T03850170  RH  028%=      5-min Rain = 0
KMC4 202130Z 16011KT 39/17 A2987 RMK A01 T03860168  RH  028%=      5-min Rain = 0
KMC4 202131Z 15014KT 39/17 A2987 RMK A01 T03870170  RH  028%=      5-min Rain = 0
KMC4 202132Z 17012KT 39/17 A2987 RMK A01 T03870168  RH  028%=      5-min Rain = 0
KMC4 202133Z 17012KT 38/17 A2987 RMK A01 T03840165  RH  028%=      5-min Rain = 0
KMC4 202134Z 18012KT 38/17 A2987 RMK A01 T03830167  RH  028%=      5-min Rain = 0
KMC4 202135Z 17013KT 39/17 A2987 RMK A01 T03860165  RH  027%=      5-min Rain = 0
KMC4 202136Z 17011KT 39/17 A2987 RMK A01 T03850165  RH  028%=      5-min Rain = 0
KMC4 202137Z 17013KT 39/17 A2987 RMK A01 T03860166  RH  028%=      5-min Rain = 0
KMC4 202138Z 17010KT 39/17 A2987 RMK A01 T03860165  RH  027%=      5-min Rain = 0
KMC4 202139Z 17011KT 38/16 A2987 RMK A01 T03820162  RH  027%=      5-min Rain = 0
KMC4 202140Z 18009KT 38/16 A2987 RMK A01 T03800163  RH  028%=      5-min Rain = 0
KMC4 202141Z 16008KT 38/17 A2987 RMK A01 T03820166  RH  028%=      5-min Rain = 0
KMC4 202142Z 14011KT 39/17 A2987 RMK A01 T03850167  RH  028%=      5-min Rain = 0
KMC4 202143Z 16012KT 39/17 A2987 RMK A01 T03870166  RH  027%=      5-min Rain = 0
KMC4 202144Z 17010KT 39/17 A2987 RMK A01 T03890166  RH  027%=      5-min Rain = 0
KMC4 202145Z 17009KT 39/17 A2987 RMK A01 T03890166  RH  027%=      5-min Rain = 0
KMC4 202153Z 16012KT 39/17 A2987 RMK A01 T03880165  RH  027%=      5-min Rain = 0
KMC4 202154Z 14013G18KT 39/17 A2987 RMK A01 T03870166  RH  027%=      5-min Rain = 0
KMC4 202155Z 13016KT 39/16 A2987 RMK A01 T03860163  RH  027%=      5-min Rain = 0
KMC4 202156Z 13015KT 39/16 A2987 RMK A01 T03860162  RH  027%=      5-min Rain = 0
KMC4 202157Z 15013G18KT 39/16 A2987 RMK A01 T03870161  RH  027%=      5-min Rain = 0
KMC4 202158Z 16012KT 39/16 A2987 RMK A01 T03850161  RH  027%=      5-min Rain = 0
KMC4 202159Z 16010KT 38/16 A2987 RMK A01 T03820164  RH  028%=      5-min Rain = 0
KMC4 202200Z 16009KT 38/17 A2987 RMK A01 T03840165  RH  028%=      5-min Rain = 0
KMC4 202201Z 13011KT 39/17 A2987 RMK A01 T03880165  RH  027%=      5-min Rain = 0
KMC4 202202Z 12011KT 39/16 A2987 RMK A01 T03890162  RH  027%=      5-min Rain = 0
KMC4 202203Z 13008KT 39/16 A2987 RMK A01 T03880163  RH  027%=      5-min Rain = 0
KMC4 202204Z 14015KT 39/16 A2986 RMK A01 T03900163  RH  027%=      5-min Rain = 0
KMC4 202205Z 14014KT 39/16 A2987 RMK A01 T03910160  RH  026%=      5-min Rain = 0
KMC4 202206Z 13013KT 39/16 A2987 RMK A01 T03900160  RH  026%=      5-min Rain = 0
KMC4 202207Z 13013KT 39/16 A2987 RMK A01 T03900160  RH  026%=      5-min Rain = 0
KMC4 202208Z 12015KT 39/16 A2986 RMK A01 T03900158  RH  026%=      5-min Rain = 0
KMC4 202209Z 12015KT 39/16 A2987 RMK A01 T03870157  RH  026%=      5-min Rain = 0
KMC4 202210Z 13011KT 38/16 A2987 RMK A01 T03840157  RH  026%=      5-min Rain = 0
KMC4 202211Z 12011KT 39/16 A2987 RMK A01 T03850156  RH  026%=      5-min Rain = 0
KMC4 202212Z 15012KT 39/16 A2986 RMK A01 T03850156  RH  026%=      5-min Rain = 0
KMC4 202213Z 14011KT 39/15 A2987 RMK A01 T03850154  RH  026%=      5-min Rain = 0
KMC4 202214Z 15016KT 39/16 A2986 RMK A01 T03860157  RH  026%=      5-min Rain = 0
KMC4 202215Z 16014KT 39/16 A2986 RMK A01 T03850158  RH  026%=      5-min Rain = 0
KMC4 202216Z 14013KT 38/16 A2986 RMK A01 T03830159  RH  027%=      5-min Rain = 0
KMC4 202217Z 14016KT 39/16 A2986 RMK A01 T03850157  RH  026%=      5-min Rain = 0
KMC4 202218Z 15013KT 39/16 A2987 RMK A01 T03860156  RH  026%=      5-min Rain = 0
KMC4 202219Z 16012KT 38/16 A2987 RMK A01 T03840156  RH  026%=      5-min Rain = 0
KMC4 202220Z 16013KT 38/16 A2986 RMK A01 T03820156  RH  026%=      5-min Rain = 0
KMC4 202221Z 18010G15KT 38/16 A2987 RMK A01 T03810155  RH  026%=      5-min Rain = 0
KMC4 202222Z 17004KT 38/15 A2986 RMK A01 T03800154  RH  026%=      5-min Rain = 0
KMC4 202223Z 13006KT 38/15 A2986 RMK A01 T03790154  RH  026%=      5-min Rain = 0
KMC4 202224Z 15012KT 38/16 A2986 RMK A01 T03810156  RH  027%=      5-min Rain = 0
KMC4 202225Z 14013KT 39/16 A2986 RMK A01 T03850158  RH  026%=      5-min Rain = 0
KMC4 202226Z 15012KT 39/16 A2986 RMK A01 T03880156  RH  026%=      5-min Rain = 0
KMC4 202227Z 16012KT 39/16 A2986 RMK A01 T03880158  RH  026%=      5-min Rain = 0
KMC4 202228Z 17013KT 39/16 A2986 RMK A01 T03890157  RH  026%=      5-min Rain = 0
KMC4 202229Z 17012KT 39/16 A2986 RMK A01 T03870156  RH  026%=      5-min Rain = 0
KMC4 202230Z 15011KT 39/16 A2986 RMK A01 T03850159  RH  026%=      5-min Rain = 0
KMC4 202231Z 13014KT 39/16 A2986 RMK A01 T03900157  RH  025%=      5-min Rain = 0
KMC4 202232Z 14011KT 39/15 A2986 RMK A01 T03900154  RH  025%=      5-min Rain = 0
KMC4 202233Z 13011KT 39/15 A2986 RMK A01 T03870154  RH  025%=      5-min Rain = 0
KMC4 202234Z 13010KT 39/16 A2986 RMK A01 T03850155  RH  026%=      5-min Rain = 0
KMC4 202235Z 14015KT 39/15 A2986 RMK A01 T03850154  RH  026%=      5-min Rain = 0
KMC4 202236Z 15014KT 39/15 A2986 RMK A01 T03870153  RH  025%=      5-min Rain = 0
KMC4 202237Z 16014KT 39/15 A2986 RMK A01 T03860154  RH  025%=      5-min Rain = 0
KMC4 202238Z 17014KT 39/15 A2986 RMK A01 T03850153  RH  025%=      5-min Rain = 0
KMC4 202239Z 15012KT 38/15 A2986 RMK A01 T03830152  RH  026%=      5-min Rain = 0
KMC4 202240Z 15011KT 38/15 A2986 RMK A01 T03810153  RH  026%=      5-min Rain = 0
KMC4 202241Z 15014KT 38/15 A2986 RMK A01 T03820152  RH  026%=      5-min Rain = 0
KMC4 202242Z 16014G19KT 38/15 A2986 RMK A01 T03830152  RH  026%=      5-min Rain = 0
KMC4 202243Z 14016KT 38/15 A2986 RMK A01 T03830151  RH  025%=      5-min Rain = 0
KMC4 202244Z 14013KT 38/15 A2986 RMK A01 T03840151  RH  025%=      5-min Rain = 0
KMC4 202245Z 14013KT 38/15 A2986 RMK A01 T03830151  RH  025%=      5-min Rain = 0
KMC4 202246Z 13013KT 38/15 A2986 RMK A01 T03840152  RH  025%=      5-min Rain = 0
KMC4 202247Z 12014KT 39/15 A2986 RMK A01 T03860150  RH  025%=      5-min Rain = 0
KMC4 202248Z 13014KT 39/15 A2986 RMK A01 T03850149  RH  025%=      5-min Rain = 0
KMC4 202249Z 15016KT 38/15 A2986 RMK A01 T03840149  RH  025%=      5-min Rain = 0
KMC4 202250Z 16015KT 38/15 A2986 RMK A01 T03840148  RH  025%=      5-min Rain = 0
KMC4 202251Z 14012KT 38/15 A2986 RMK A01 T03830149  RH  025%=      5-min Rain = 0
KMC4 202252Z 15010KT 38/15 A2986 RMK A01 T03840148  RH  025%=      5-min Rain = 0
KMC4 202253Z 17011KT 38/15 A2986 RMK A01 T03830148  RH  025%=      5-min Rain = 0
KMC4 202254Z 17013KT 38/15 A2986 RMK A01 T03820147  RH  025%=      5-min Rain = 0
KMC4 202255Z 15013KT 38/15 A2985 RMK A01 T03800145  RH  025%=      5-min Rain = 0
KMC4 202256Z 15010KT 38/15 A2985 RMK A01 T03800147  RH  025%=      5-min Rain = 0
KMC4 202257Z 17012KT 38/15 A2985 RMK A01 T03810148  RH  025%=      5-min Rain = 0
KMC4 202258Z 16010KT 38/15 A2985 RMK A01 T03800147  RH  025%=      5-min Rain = 0
KMC4 202259Z 16011KT 38/15 A2985 RMK A01 T03800149  RH  026%=      5-min Rain = 0
KMC4 202300Z 16012KT 38/15 A2985 RMK A01 T03810149  RH  025%=      5-min Rain = 0
KMC4 202301Z 15016KT 38/15 A2985 RMK A01 T03820148  RH  025%=      5-min Rain = 0
KMC4 202302Z 17016KT 38/15 A2985 RMK A01 T03820149  RH  025%=      5-min Rain = 0
KMC4 202303Z 16015KT 38/15 A2985 RMK A01 T03810148  RH  025%=      5-min Rain = 0
KMC4 202304Z 17011KT 38/15 A2985 RMK A01 T03800147  RH  025%=      5-min Rain = 0
KMC4 202305Z 17007KT 38/15 A2985 RMK A01 T03780147  RH  026%=      5-min Rain = 0
KMC4 202306Z 15010KT 38/15 A2985 RMK A01 T03770147  RH  026%=      5-min Rain = 0
KMC4 202307Z 17011KT 38/15 A2985 RMK A01 T03770147  RH  026%=      5-min Rain = 0
KMC4 202308Z 14010KT 38/15 A2985 RMK A01 T03790147  RH  025%=      5-min Rain = 0
KMC4 202309Z 16010KT 38/15 A2985 RMK A01 T03800146  RH  025%=      5-min Rain = 0
KMC4 202310Z 16012KT 38/15 A2985 RMK A01 T03810150  RH  025%=      5-min Rain = 0
KMC4 202311Z 16013KT 38/15 A2985 RMK A01 T03810149  RH  025%=      5-min Rain = 0
KMC4 202312Z 16010KT 38/15 A2985 RMK A01 T03820149  RH  025%=      5-min Rain = 0
KMC4 202313Z 16011KT 38/15 A2985 RMK A01 T03820152  RH  026%=      5-min Rain = 0
KMC4 202314Z 16011KT 38/15 A2985 RMK A01 T03820149  RH  025%=      5-min Rain = 0
KMC4 202315Z 17010KT 38/15 A2985 RMK A01 T03800150  RH  026%=      5-min Rain = 0
KMC4 202316Z 16012KT 38/15 A2985 RMK A01 T03790150  RH  026%=      5-min Rain = 0
KMC4 202317Z 18012KT 38/15 A2985 RMK A01 T03790149  RH  026%=      5-min Rain = 0
KMC4 202318Z 14014KT 38/15 A2985 RMK A01 T03810148  RH  025%=      5-min Rain = 0
KMC4 202319Z 15013G18KT 38/15 A2985 RMK A01 T03830145  RH  025%=      5-min Rain = 0
KMC4 202320Z 13012KT 38/15 A2985 RMK A01 T03810146  RH  025%=      5-min Rain = 0
KMC4 202321Z 13012KT 38/14 A2985 RMK A01 T03810144  RH  025%=      5-min Rain = 0
KMC4 202322Z 13013KT 38/15 A2985 RMK A01 T03810145  RH  025%=      5-min Rain = 0
KMC4 202323Z 14012KT 38/15 A2985 RMK A01 T03810147  RH  025%=      5-min Rain = 0
KMC4 202324Z 14011KT 38/15 A2985 RMK A01 T03820146  RH  025%=      5-min Rain = 0
KMC4 202325Z 14015KT 38/15 A2985 RMK A01 T03820146  RH  025%=      5-min Rain = 0
KMC4 202326Z 13017KT 38/15 A2985 RMK A01 T03810147  RH  025%=      5-min Rain = 0
KMC4 202327Z 13016KT 38/15 A2985 RMK A01 T03810146  RH  025%=      5-min Rain = 0
KMC4 202328Z 14014KT 38/15 A2985 RMK A01 T03810145  RH  025%=      5-min Rain = 0
KMC4 202329Z 13013KT 38/15 A2985 RMK A01 T03810145  RH  025%=      5-min Rain = 0
KMC4 202330Z 14015KT 38/15 A2985 RMK A01 T03810145  RH  025%=      5-min Rain = 0
KMC4 202331Z 15013KT 38/14 A2985 RMK A01 T03810144  RH  025%=      5-min Rain = 0
KMC4 202332Z 14009KT 38/14 A2985 RMK A01 T03810143  RH  024%=      5-min Rain = 0
KMC4 202333Z 15011G19KT 38/14 A2985 RMK A01 T03790144  RH  025%=      5-min Rain = 0
KMC4 202334Z 16018KT 38/15 A2984 RMK A01 T03790146  RH  025%=      5-min Rain = 0
KMC4 202335Z 13013KT 38/15 A2985 RMK A01 T03790147  RH  025%=      5-min Rain = 0
KMC4 202336Z 13017KT 38/15 A2985 RMK A01 T03820147  RH  025%=      5-min Rain = 0
KMC4 202337Z 14017KT 38/15 A2985 RMK A01 T03820145  RH  025%=      5-min Rain = 0
KMC4 202338Z 15017KT 38/15 A2985 RMK A01 T03800145  RH  025%=      5-min Rain = 0
KMC4 202339Z 16016KT 38/15 A2985 RMK A01 T03800146  RH  025%=      5-min Rain = 0
KMC4 202340Z 16014G19KT 38/15 A2985 RMK A01 T03800145  RH  025%=      5-min Rain = 0
KMC4 202341Z 15015KT 38/15 A2985 RMK A01 T03780145  RH  025%=      5-min Rain = 0
KMC4 202342Z 15015KT 38/14 A2985 RMK A01 T03770144  RH  025%=      5-min Rain = 0
KMC4 202343Z 15012KT 38/14 A2985 RMK A01 T03760143  RH  025%=      5-min Rain = 0
KMC4 202344Z 14011KT 38/14 A2985 RMK A01 T03750142  RH  025%=      5-min Rain = 0
KMC4 202345Z 15012KT 38/14 A2985 RMK A01 T03750143  RH  025%=      5-min Rain = 0
KMC4 202346Z 16014KT 38/14 A2985 RMK A01 T03760143  RH  025%=      5-min Rain = 0
KMC4 202347Z 16011KT 38/14 A2985 RMK A01 T03770143  RH  025%=      5-min Rain = 0
KMC4 202348Z 17008KT 38/14 A2985 RMK A01 T03760144  RH  025%=      5-min Rain = 0
KMC4 202349Z 17009KT 38/14 A2985 RMK A01 T03760142  RH  025%=      5-min Rain = 0
KMC4 202350Z 16008KT 38/14 A2985 RMK A01 T03750144  RH  025%=      5-min Rain = 0
KMC4 202351Z 16013KT 38/14 A2985 RMK A01 T03750144  RH  025%=      5-min Rain = 0
KMC4 202352Z 17015KT 38/14 A2985 RMK A01 T03760142  RH  025%=      5-min Rain = 0
KMC4 202353Z 17011KT 37/14 A2985 RMK A01 T03740141  RH  025%=      5-min Rain = 0
KMC4 202354Z 16010KT 37/14 A2985 RMK A01 T03730144  RH  026%=      5-min Rain = 0
KMC4 202355Z 14010KT 37/14 A2985 RMK A01 T03730144  RH  026%=      5-min Rain = 0
KMC4 202356Z 12013KT 38/15 A2985 RMK A01 T03760145  RH  025%=      5-min Rain = 0
KMC4 202357Z 13013KT 38/14 A2985 RMK A01 T03780143  RH  025%=      5-min Rain = 0
KMC4 202358Z 15016KT 38/14 A2985 RMK A01 T03790143  RH  025%=      5-min Rain = 0
KMC4 202359Z 16015KT 38/14 A2985 RMK A01 T03770142  RH  025%=      5-min Rain = 0
KMC4 210000Z 14014KT 38/14 A2985 RMK A01 T03760143  RH  025%=      5-min Rain = 0
KMC4 210001Z 14014KT 38/14 A2985 RMK A01 T03760142  RH  025%=      5-min Rain = 0
KMC4 210002Z 14015KT 38/14 A2985 RMK A01 T03760142  RH  025%=      5-min Rain = 0
KMC4 210003Z 15014KT 38/14 A2985 RMK A01 T03750141  RH  025%=      5-min Rain = 0
KMC4 210004Z 14012KT 38/14 A2985 RMK A01 T03750141  RH  025%=      5-min Rain = 0
KMC4 210005Z 14014KT 38/14 A2985 RMK A01 T03750140  RH  025%=      5-min Rain = 0
KMC4 210006Z 14014KT 38/14 A2985 RMK A01 T03750141  RH  025%=      5-min Rain = 0
KMC4 210007Z 14014KT 38/14 A2985 RMK A01 T03750142  RH  025%=      5-min Rain = 0
KMC4 210008Z 15013G19KT 38/14 A2985 RMK A01 T03750144  RH  025%=      5-min Rain = 0
KMC4 210009Z 15015KT 37/14 A2985 RMK A01 T03740144  RH  026%=      5-min Rain = 0
KMC4 210010Z 17012KT 37/15 A2985 RMK A01 T03730145  RH  026%=      5-min Rain = 0
KMC4 210011Z 16016KT 37/15 A2985 RMK A01 T03720146  RH  026%=      5-min Rain = 0
KMC4 210012Z 15016KT 37/14 A2985 RMK A01 T03720143  RH  026%=      5-min Rain = 0
KMC4 210013Z 16013KT 37/14 A2985 RMK A01 T03720144  RH  026%=      5-min Rain = 0
KMC4 210014Z 17014KT 37/14 A2985 RMK A01 T03720143  RH  026%=      5-min Rain = 0
KMC4 210015Z 16015KT 37/14 A2985 RMK A01 T03710143  RH  026%=      5-min Rain = 0
KMC4 210016Z 15014KT 37/14 A2985 RMK A01 T03710142  RH  026%=      5-min Rain = 0
KMC4 210017Z 16014KT 37/14 A2985 RMK A01 T03700143  RH  026%=      5-min Rain = 0
KMC4 210018Z 16014KT 37/14 A2985 RMK A01 T03700143  RH  026%=      5-min Rain = 0
KMC4 210019Z 16013KT 37/14 A2985 RMK A01 T03690143  RH  026%=      5-min Rain = 0
KMC4 210020Z 16012KT 37/14 A2985 RMK A01 T03690143  RH  026%=      5-min Rain = 0
KMC4 210021Z 14012KT 37/14 A2985 RMK A01 T03680143  RH  026%=      5-min Rain = 0
KMC4 210022Z 14014KT 37/14 A2985 RMK A01 T03690144  RH  026%=      5-min Rain = 0
KMC4 210023Z 16014KT 37/14 A2985 RMK A01 T03710143  RH  026%=      5-min Rain = 0
KMC4 210024Z 16013KT 37/14 A2985 RMK A01 T03720143  RH  026%=      5-min Rain = 0
KMC4 210025Z 16013KT 37/14 A2985 RMK A01 T03700143  RH  026%=      5-min Rain = 0
KMC4 210026Z 16012KT 37/14 A2985 RMK A01 T03680142  RH  026%=      5-min Rain = 0
KMC4 210027Z 16012KT 37/14 A2985 RMK A01 T03680144  RH  026%=      5-min Rain = 0
KMC4 210028Z 16012KT 37/14 A2985 RMK A01 T03690143  RH  026%=      5-min Rain = 0
KMC4 210029Z 16016KT 37/14 A2985 RMK A01 T03690141  RH  026%=      5-min Rain = 0
KMC4 210030Z 16016KT 37/14 A2985 RMK A01 T03690141  RH  026%=      5-min Rain = 0
KMC4 210031Z 16015KT 37/14 A2985 RMK A01 T03680141  RH  026%=      5-min Rain = 0
KMC4 210032Z 16014KT 37/14 A2985 RMK A01 T03670140  RH  026%=      5-min Rain = 0
KMC4 210033Z 16012KT 37/14 A2985 RMK A01 T03670139  RH  026%=      5-min Rain = 0
KMC4 210034Z 16011KT 37/14 A2985 RMK A01 T03680140  RH  026%=      5-min Rain = 0
KMC4 210035Z 16015KT 37/14 A2985 RMK A01 T03680140  RH  026%=      5-min Rain = 0
KMC4 210036Z 15014KT 37/14 A2985 RMK A01 T03670139  RH  026%=      5-min Rain = 0
KMC4 210037Z 14016KT 37/14 A2985 RMK A01 T03670140  RH  026%=      5-min Rain = 0
KMC4 210038Z 15013KT 37/14 A2985 RMK A01 T03670139  RH  026%=      5-min Rain = 0
KMC4 210039Z 14014G19KT 37/14 A2985 RMK A01 T03680139  RH  026%=      5-min Rain = 0
KMC4 210040Z 15015KT 37/14 A2985 RMK A01 T03670139  RH  026%=      5-min Rain = 0
KMC4 210041Z 14016KT 37/14 A2985 RMK A01 T03680138  RH  025%=      5-min Rain = 0
KMC4 210042Z 15016G21KT 37/14 A2985 RMK A01 T03670137  RH  025%=      5-min Rain = 0
KMC4 210043Z 14015KT 37/14 A2985 RMK A01 T03670138  RH  025%=      5-min Rain = 0
KMC4 210044Z 14015KT 37/14 A2985 RMK A01 T03660138  RH  026%=      5-min Rain = 0
KMC4 210045Z 15013KT 37/14 A2985 RMK A01 T03660138  RH  026%=      5-min Rain = 0
KMC4 210046Z 16013G18KT 37/14 A2986 RMK A01 T03660139  RH  026%=      5-min Rain = 0
KMC4 210047Z 16013KT 37/14 A2986 RMK A01 T03660138  RH  026%=      5-min Rain = 0
KMC4 210048Z 16012KT 37/14 A2986 RMK A01 T03650138  RH  026%=      5-min Rain = 0
KMC4 210049Z 14013KT 36/14 A2986 RMK A01 T03640137  RH  026%=      5-min Rain = 0
KMC4 210050Z 15012G17KT 36/14 A2986 RMK A01 T03640136  RH  026%=      5-min Rain = 0
KMC4 210051Z 16017KT 37/14 A2986 RMK A01 T03650136  RH  025%=      5-min Rain = 0
KMC4 210052Z 16017KT 36/14 A2986 RMK A01 T03640135  RH  025%=      5-min Rain = 0
KMC4 210053Z 16016KT 36/14 A2986 RMK A01 T03630136  RH  026%=      5-min Rain = 0
KMC4 210054Z 16016KT 36/14 A2986 RMK A01 T03620136  RH  026%=      5-min Rain = 0
KMC4 210055Z 16014G19KT 36/14 A2986 RMK A01 T03610136  RH  026%=      5-min Rain = 0
KMC4 210056Z 15014KT 36/14 A2986 RMK A01 T03620136  RH  026%=      5-min Rain = 0
KMC4 210057Z 16013KT 36/14 A2986 RMK A01 T03620136  RH  026%=      5-min Rain = 0
KMC4 210058Z 15014KT 36/13 A2986 RMK A01 T03610134  RH  026%=      5-min Rain = 0
KMC4 210059Z 16013KT 36/14 A2986 RMK A01 T03610135  RH  026%=      5-min Rain = 0
KMC4 210100Z 17012KT 36/14 A2986 RMK A01 T03610136  RH  026%=      5-min Rain = 0
KMC4 210101Z 16014KT 36/14 A2986 RMK A01 T03600136  RH  026%=      5-min Rain = 0
KMC4 210102Z 16011KT 36/14 A2986 RMK A01 T03600136  RH  026%=      5-min Rain = 0
KMC4 210103Z 17010KT 36/14 A2986 RMK A01 T03590136  RH  026%=      5-min Rain = 0
KMC4 210104Z 17013KT 36/14 A2986 RMK A01 T03590136  RH  026%=      5-min Rain = 0
KMC4 210105Z 16013KT 36/14 A2986 RMK A01 T03590136  RH  026%=      5-min Rain = 0
KMC4 210106Z 15013KT 36/14 A2986 RMK A01 T03580135  RH  026%=      5-min Rain = 0
KMC4 210107Z 16013KT 36/14 A2987 RMK A01 T03580136  RH  026%=      5-min Rain = 0
KMC4 210108Z 16015KT 36/14 A2986 RMK A01 T03580135  RH  026%=      5-min Rain = 0
KMC4 210109Z 15014KT 36/14 A2987 RMK A01 T03580135  RH  026%=      5-min Rain = 0
KMC4 210110Z 15011G16KT 36/14 A2987 RMK A01 T03580135  RH  026%=      5-min Rain = 0
KMC4 210111Z 16013G18KT 36/14 A2987 RMK A01 T03580135  RH  026%=      5-min Rain = 0
KMC4 210112Z 16012KT 36/13 A2987 RMK A01 T03570134  RH  026%=      5-min Rain = 0
KMC4 210113Z 17015KT 36/13 A2987 RMK A01 T03560134  RH  026%=      5-min Rain = 0
KMC4 210114Z 16012KT 36/13 A2987 RMK A01 T03560134  RH  026%=      5-min Rain = 0
KMC4 210115Z 16010KT 36/13 A2987 RMK A01 T03550134  RH  027%=      5-min Rain = 0
KMC4 210116Z 16011KT 36/13 A2987 RMK A01 T03550134  RH  027%=      5-min Rain = 0
KMC4 210117Z 15013KT 36/13 A2987 RMK A01 T03550134  RH  027%=      5-min Rain = 0
KMC4 210118Z 15012KT 36/13 A2987 RMK A01 T03550133  RH  026%=      5-min Rain = 0
KMC4 210119Z 15014KT 36/13 A2987 RMK A01 T03550134  RH  027%=      5-min Rain = 0
KMC4 210120Z 15015KT 36/13 A2987 RMK A01 T03550133  RH  026%=      5-min Rain = 0
KMC4 210121Z 15013KT 36/13 A2987 RMK A01 T03550132  RH  026%=      5-min Rain = 0
KMC4 210122Z 15013KT 36/13 A2987 RMK A01 T03550132  RH  026%=      5-min Rain = 0
KMC4 210123Z 15013KT 35/13 A2987 RMK A01 T03540133  RH  026%=      5-min Rain = 0
KMC4 210124Z 15012KT 35/13 A2987 RMK A01 T03540133  RH  027%=      5-min Rain = 0
KMC4 210125Z 15014KT 35/13 A2987 RMK A01 T03530133  RH  027%=      5-min Rain = 0
KMC4 210126Z 15012KT 35/13 A2987 RMK A01 T03530133  RH  027%=      5-min Rain = 0
KMC4 210127Z 14013KT 35/13 A2987 RMK A01 T03530133  RH  027%=      5-min Rain = 0
KMC4 210128Z 14013KT 35/13 A2987 RMK A01 T03520133  RH  027%=      5-min Rain = 0
KMC4 210129Z 14011KT 35/13 A2987 RMK A01 T03520133  RH  027%=      5-min Rain = 0
KMC4 210130Z 14013KT 35/13 A2987 RMK A01 T03510133  RH  027%=      5-min Rain = 0
KMC4 210131Z 15014KT 35/13 A2987 RMK A01 T03500133  RH  027%=      5-min Rain = 0
KMC4 210132Z 15012KT 35/13 A2987 RMK A01 T03500133  RH  027%=      5-min Rain = 0
KMC4 210133Z 14012KT 35/13 A2987 RMK A01 T03500133  RH  027%=      5-min Rain = 0
KMC4 210134Z 15010KT 35/13 A2987 RMK A01 T03490133  RH  027%=      5-min Rain = 0
KMC4 210135Z 15014KT 35/13 A2987 RMK A01 T03490134  RH  027%=      5-min Rain = 0
KMC4 210136Z 14012KT 35/13 A2987 RMK A01 T03480134  RH  027%=      5-min Rain = 0
KMC4 210137Z 14013KT 35/13 A2987 RMK A01 T03480134  RH  028%=      5-min Rain = 0
KMC4 210138Z 14012KT 35/13 A2987 RMK A01 T03480134  RH  028%=      5-min Rain = 0
KMC4 210139Z 15013KT 35/13 A2987 RMK A01 T03470134  RH  028%=      5-min Rain = 0
KMC4 210140Z 15014KT 35/13 A2987 RMK A01 T03470134  RH  028%=      5-min Rain = 0
KMC4 210141Z 15011KT 35/14 A2987 RMK A01 T03470135  RH  028%=      5-min Rain = 0
KMC4 210142Z 15010KT 35/14 A2987 RMK A01 T03460135  RH  028%=      5-min Rain = 0
KMC4 210143Z 15009KT 35/14 A2987 RMK A01 T03450135  RH  028%=      5-min Rain = 0
KMC4 210144Z 14013KT 35/14 A2987 RMK A01 T03450135  RH  028%=      5-min Rain = 0
KMC4 210145Z 14013KT 35/14 A2987 RMK A01 T03450135  RH  028%=      5-min Rain = 0
KMC4 210146Z 14013KT 35/14 A2987 RMK A01 T03450135  RH  028%=      5-min Rain = 0
KMC4 210147Z 14010KT 34/14 A2987 RMK A01 T03440135  RH  028%=      5-min Rain = 0
KMC4 210148Z 15012KT 34/14 A2987 RMK A01 T03430135  RH  029%=      5-min Rain = 0
KMC4 210149Z 14015KT 34/14 A2987 RMK A01 T03430136  RH  029%=      5-min Rain = 0
KMC4 210150Z 15015KT 34/14 A2987 RMK A01 T03430135  RH  029%=      5-min Rain = 0
KMC4 210151Z 15013G18KT 34/14 A2987 RMK A01 T03430135  RH  029%=      5-min Rain = 0
KMC4 210152Z 14014KT 34/14 A2988 RMK A01 T03430135  RH  029%=      5-min Rain = 0
KMC4 210153Z 15014KT 34/14 A2988 RMK A01 T03430135  RH  029%=      5-min Rain = 0
KMC4 210154Z 14012KT 34/14 A2988 RMK A01 T03430135  RH  029%=      5-min Rain = 0
KMC4 210155Z 14012KT 34/14 A2988 RMK A01 T03420135  RH  029%=      5-min Rain = 0
KMC4 210156Z 15011KT 34/14 A2988 RMK A01 T03420135  RH  029%=      5-min Rain = 0
KMC4 210157Z 15011KT 34/14 A2988 RMK A01 T03410135  RH  029%=      5-min Rain = 0
KMC4 210158Z 15011KT 34/14 A2988 RMK A01 T03410135  RH  029%=      5-min Rain = 0
KMC4 210159Z 14010KT 34/14 A2988 RMK A01 T03400135  RH  029%=      5-min Rain = 0
KMC4 210200Z 14011KT 34/14 A2988 RMK A01 T03400135  RH  029%=      5-min Rain = 0
KMC4 210201Z 15011KT 34/14 A2988 RMK A01 T03400135  RH  029%=      5-min Rain = 0
KMC4 210202Z 15010KT 34/14 A2988 RMK A01 T03390135  RH  029%=      5-min Rain = 0
KMC4 210203Z 14010KT 34/14 A2988 RMK A01 T03380135  RH  029%=      5-min Rain = 0
KMC4 210204Z 14010KT 34/14 A2988 RMK A01 T03380135  RH  029%=      5-min Rain = 0
KMC4 210205Z 14010KT 34/14 A2988 RMK A01 T03370135  RH  030%=      5-min Rain = 0
KMC4 210206Z 15010KT 34/14 A2988 RMK A01 T03370135  RH  030%=      5-min Rain = 0
KMC4 210207Z 15010KT 34/14 A2988 RMK A01 T03360135  RH  030%=      5-min Rain = 0
KMC4 210208Z 14011KT 34/14 A2988 RMK A01 T03360135  RH  030%=      5-min Rain = 0
KMC4 210209Z 14009KT 34/14 A2988 RMK A01 T03360135  RH  030%=      5-min Rain = 0
KMC4 210210Z 14010KT 34/14 A2988 RMK A01 T03350135  RH  030%=      5-min Rain = 0
KMC4 210211Z 14010KT 33/14 A2988 RMK A01 T03340135  RH  030%=      5-min Rain = 0
KMC4 210212Z 14010KT 33/14 A2988 RMK A01 T03340135  RH  030%=      5-min Rain = 0
KMC4 210213Z 14011KT 33/14 A2988 RMK A01 T03340135  RH  030%=      5-min Rain = 0
KMC4 210214Z 14011KT 33/13 A2988 RMK A01 T03340134  RH  030%=      5-min Rain = 0
KMC4 210215Z 14012KT 33/13 A2988 RMK A01 T03330134  RH  030%=      5-min Rain = 0
KMC4 210216Z 14011KT 33/13 A2988 RMK A01 T03330134  RH  030%=      5-min Rain = 0
KMC4 210217Z 14011KT 33/13 A2988 RMK A01 T03330134  RH  030%=      5-min Rain = 0
KMC4 210218Z 14011KT 33/13 A2988 RMK A01 T03330134  RH  030%=      5-min Rain = 0
KMC4 210219Z 14012KT 33/13 A2988 RMK A01 T03330133  RH  030%=      5-min Rain = 0
KMC4 210220Z 14013KT 33/13 A2988 RMK A01 T03330134  RH  030%=      5-min Rain = 0
KMC4 210221Z 14012KT 33/13 A2988 RMK A01 T03330133  RH  030%=      5-min Rain = 0
KMC4 210222Z 14014KT 33/13 A2988 RMK A01 T03330133  RH  030%=      5-min Rain = 0
KMC4 210223Z 14012KT 33/13 A2988 RMK A01 T03330133  RH  030%=      5-min Rain = 0
KMC4 210224Z 14011KT 33/13 A2988 RMK A01 T03330133  RH  030%=      5-min Rain = 0
KMC4 210225Z 14011KT 33/13 A2988 RMK A01 T03330133  RH  030%=      5-min Rain = 0
KMC4 210226Z 14011KT 33/13 A2988 RMK A01 T03320133  RH  030%=      5-min Rain = 0
KMC4 210227Z 14011KT 33/13 A2988 RMK A01 T03330133  RH  030%=      5-min Rain = 0
KMC4 210228Z 14009KT 33/13 A2988 RMK A01 T03320133  RH  030%=      5-min Rain = 0
KMC4 210229Z 14012KT 33/13 A2988 RMK A01 T03320133  RH  030%=      5-min Rain = 0
KMC4 210230Z 14011KT 33/13 A2988 RMK A01 T03310133  RH  030%=      5-min Rain = 0
KMC4 210231Z 14010KT 33/13 A2988 RMK A01 T03310133  RH  030%=      5-min Rain = 0
KMC4 210232Z 14008KT 33/13 A2988 RMK A01 T03310134  RH  030%=      5-min Rain = 0
KMC4 210233Z 14010KT 33/13 A2988 RMK A01 T03300133  RH  030%=      5-min Rain = 0
KMC4 210234Z 14008KT 33/13 A2989 RMK A01 T03300133  RH  030%=      5-min Rain = 0
KMC4 210235Z 14010KT 33/13 A2989 RMK A01 T03290134  RH  031%=      5-min Rain = 0
KMC4 210236Z 14010KT 33/13 A2989 RMK A01 T03290133  RH  031%=      5-min Rain = 0
KMC4 210237Z 14009KT 33/13 A2989 RMK A01 T03290133  RH  031%=      5-min Rain = 0
KMC4 210238Z 14009KT 33/13 A2989 RMK A01 T03290134  RH  031%=      5-min Rain = 0
KMC4 210239Z 14008KT 33/13 A2989 RMK A01 T03280134  RH  031%=      5-min Rain = 0
KMC4 210240Z 14008KT 33/13 A2989 RMK A01 T03270133  RH  031%=      5-min Rain = 0
KMC4 210241Z 14008KT 33/13 A2989 RMK A01 T03260133  RH  031%=      5-min Rain = 0
KMC4 210242Z 14009KT 33/13 A2989 RMK A01 T03260134  RH  031%=      5-min Rain = 0
KMC4 210243Z 13008KT 33/13 A2989 RMK A01 T03250134  RH  031%=      5-min Rain = 0
KMC4 210244Z 13009KT 33/13 A2989 RMK A01 T03250134  RH  031%=      5-min Rain = 0
KMC4 210245Z 14008KT 32/13 A2989 RMK A01 T03240134  RH  031%=      5-min Rain = 0
KMC4 210246Z 14007KT 32/13 A2989 RMK A01 T03240134  RH  032%=      5-min Rain = 0
KMC4 210247Z 14008KT 32/13 A2989 RMK A01 T03240134  RH  032%=      5-min Rain = 0
KMC4 210248Z 14008KT 32/13 A2989 RMK A01 T03230134  RH  032%=      5-min Rain = 0
KMC4 210249Z 14007KT 32/13 A2989 RMK A01 T03220134  RH  032%=      5-min Rain = 0
KMC4 210250Z 14008KT 32/14 A2989 RMK A01 T03220135  RH  032%=      5-min Rain = 0
KMC4 210251Z 14008KT 32/14 A2989 RMK A01 T03220135  RH  032%=      5-min Rain = 0
KMC4 210252Z 14007KT 32/14 A2989 RMK A01 T03210135  RH  032%=      5-min Rain = 0
KMC4 210253Z 13008KT 32/14 A2989 RMK A01 T03200135  RH  033%=      5-min Rain = 0
KMC4 210254Z 13007KT 32/14 A2989 RMK A01 T03200135  RH  033%=      5-min Rain = 0
KMC4 210255Z 13007KT 32/14 A2989 RMK A01 T03190136  RH  033%=      5-min Rain = 0
KMC4 210256Z 13006KT 32/14 A2989 RMK A01 T03180136  RH  033%=      5-min Rain = 0
KMC4 210257Z 13006KT 32/14 A2989 RMK A01 T03180136  RH  033%=      5-min Rain = 0
KMC4 210258Z 13006KT 32/14 A2989 RMK A01 T03170137  RH  033%=      5-min Rain = 0
KMC4 210259Z 13006KT 32/14 A2989 RMK A01 T03170137  RH  034%=      5-min Rain = 0
KMC4 210300Z 13006KT 32/14 A2989 RMK A01 T03170138  RH  034%=      5-min Rain = 0
KMC4 210301Z 13006KT 32/14 A299 RMK A01 T03160138  RH  034%=      5-min Rain = 0
KMC4 210302Z 13005KT 32/14 A299 RMK A01 T03160138  RH  034%=      5-min Rain = 0
KMC4 210303Z 13006KT 32/14 A299 RMK A01 T03150139  RH  034%=      5-min Rain = 0
KMC4 210304Z 13006KT 32/14 A299 RMK A01 T03150140  RH  035%=      5-min Rain = 0
KMC4 210305Z 13006KT 31/14 A299 RMK A01 T03140140  RH  035%=      5-min Rain = 0
KMC4 210306Z 13007KT 31/14 A299 RMK A01 T03140140  RH  035%=      5-min Rain = 0
KMC4 210307Z 13007KT 31/14 A299 RMK A01 T03140141  RH  035%=      5-min Rain = 0
KMC4 210308Z 13007KT 31/14 A299 RMK A01 T03130141  RH  035%=      5-min Rain = 0
KMC4 210309Z 13006KT 31/14 A299 RMK A01 T03130141  RH  035%=      5-min Rain = 0
KMC4 210310Z 13006KT 31/14 A299 RMK A01 T03130141  RH  035%=      5-min Rain = 0
KMC4 210311Z 12007KT 31/14 A299 RMK A01 T03130141  RH  035%=      5-min Rain = 0
KMC4 210312Z 13007KT 31/14 A299 RMK A01 T03120141  RH  035%=      5-min Rain = 0
KMC4 210313Z 13008KT 31/14 A299 RMK A01 T03120141  RH  035%=      5-min Rain = 0
KMC4 210314Z 13008KT 31/14 A299 RMK A01 T03120141  RH  035%=      5-min Rain = 0
KMC4 210315Z 13007KT 31/14 A299 RMK A01 T03120141  RH  035%=      5-min Rain = 0
KMC4 210316Z 13007KT 31/14 A299 RMK A01 T03120142  RH  036%=      5-min Rain = 0
KMC4 210317Z 13006KT 31/14 A299 RMK A01 T03120142  RH  036%=      5-min Rain = 0
KMC4 210318Z 13007KT 31/14 A299 RMK A01 T03110141  RH  036%=      5-min Rain = 0
KMC4 210319Z 13007KT 31/14 A299 RMK A01 T03100141  RH  036%=      5-min Rain = 0
KMC4 210320Z 13007KT 31/14 A299 RMK A01 T03090141  RH  036%=      5-min Rain = 0
KMC4 210321Z 13008KT 31/14 A299 RMK A01 T03090141  RH  036%=      5-min Rain = 0
KMC4 210322Z 13007KT 31/14 A299 RMK A01 T03100142  RH  036%=      5-min Rain = 0
KMC4 210323Z 13006KT 31/14 A299 RMK A01 T03090141  RH  036%=      5-min Rain = 0
KMC4 210324Z 13007KT 31/14 A299 RMK A01 T03090142  RH  036%=      5-min Rain = 0
KMC4 210325Z 13008KT 31/14 A299 RMK A01 T03090142  RH  036%=      5-min Rain = 0
KMC4 210326Z 13007KT 31/14 A299 RMK A01 T03090142  RH  036%=      5-min Rain = 0
KMC4 210327Z 13007KT 31/14 A299 RMK A01 T03090142  RH  036%=      5-min Rain = 0
KMC4 210328Z 13007KT 31/14 A299 RMK A01 T03090142  RH  036%=      5-min Rain = 0
KMC4 210329Z 13007KT 31/14 A299 RMK A01 T03100142  RH  036%=      5-min Rain = 0
KMC4 210330Z 12007KT 31/14 A299 RMK A01 T03100143  RH  036%=      5-min Rain = 0
KMC4 210331Z 12008KT 31/14 A299 RMK A01 T03100143  RH  036%=      5-min Rain = 0
KMC4 210332Z 12008KT 31/14 A299 RMK A01 T03100143  RH  036%=      5-min Rain = 0
KMC4 210333Z 12008KT 31/14 A299 RMK A01 T03100143  RH  036%=      5-min Rain = 0
KMC4 210334Z 12008KT 31/14 A299 RMK A01 T03110143  RH  036%=      5-min Rain = 0
KMC4 210335Z 12007KT 31/14 A299 RMK A01 T03110143  RH  036%=      5-min Rain = 0
KMC4 210336Z 12007KT 31/14 A299 RMK A01 T03110143  RH  036%=      5-min Rain = 0
KMC4 210337Z 12007KT 31/14 A299 RMK A01 T03110143  RH  036%=      5-min Rain = 0
KMC4 210338Z 11007KT 31/14 A299 RMK A01 T03120143  RH  036%=      5-min Rain = 0
KMC4 210339Z 12008KT 31/14 A299 RMK A01 T03120143  RH  036%=      5-min Rain = 0
KMC4 210340Z 12007KT 31/14 A299 RMK A01 T03120143  RH  036%=      5-min Rain = 0
KMC4 210341Z 12008KT 31/14 A2991 RMK A01 T03110143  RH  036%=      5-min Rain = 0
KMC4 210342Z 12007KT 31/14 A2991 RMK A01 T03110143  RH  036%=      5-min Rain = 0
KMC4 210343Z 12008KT 31/14 A2991 RMK A01 T03110143  RH  036%=      5-min Rain = 0
KMC4 210344Z 12008KT 31/14 A2991 RMK A01 T03110143  RH  036%=      5-min Rain = 0
KMC4 210345Z 12008KT 31/14 A2991 RMK A01 T03110143  RH  036%=      5-min Rain = 0
KMC4 210346Z 12007KT 31/14 A2991 RMK A01 T03110143  RH  036%=      5-min Rain = 0
KMC4 210347Z 12007KT 31/14 A2991 RMK A01 T03100143  RH  036%=      5-min Rain = 0
KMC4 210348Z 13008KT 31/14 A2991 RMK A01 T03100143  RH  036%=      5-min Rain = 0
KMC4 210349Z 12008KT 31/14 A2991 RMK A01 T03090142  RH  036%=      5-min Rain = 0
KMC4 210350Z 12008KT 31/14 A2991 RMK A01 T03090142  RH  036%=      5-min Rain = 0
KMC4 210351Z 13008KT 31/14 A2991 RMK A01 T03090143  RH  036%=      5-min Rain = 0
KMC4 210352Z 13008KT 31/14 A2991 RMK A01 T03080142  RH  036%=      5-min Rain = 0
KMC4 210353Z 13008KT 31/14 A2991 RMK A01 T03080142  RH  036%=      5-min Rain = 0
KMC4 210354Z 14007KT 31/14 A2991 RMK A01 T03080142  RH  036%=      5-min Rain = 0
KMC4 210355Z 13008KT 31/14 A2991 RMK A01 T03070141  RH  036%=      5-min Rain = 0
KMC4 210356Z 13008KT 31/14 A2991 RMK A01 T03070141  RH  036%=      5-min Rain = 0
KMC4 210357Z 13008KT 31/14 A2991 RMK A01 T03070141  RH  036%=      5-min Rain = 0
KMC4 210358Z 13008KT 31/14 A2991 RMK A01 T03070141  RH  036%=      5-min Rain = 0
KMC4 210359Z 13008KT 31/14 A2991 RMK A01 T03070141  RH  036%=      5-min Rain = 0
KMC4 210400Z 13007KT 31/14 A2991 RMK A01 T03070141  RH  036%=      5-min Rain = 0
KMC4 210401Z 13008KT 31/14 A2991 RMK A01 T03060140  RH  036%=      5-min Rain = 0
KMC4 210402Z 14007KT 31/14 A2991 RMK A01 T03060140  RH  036%=      5-min Rain = 0
KMC4 210403Z 13008KT 31/14 A2991 RMK A01 T03060140  RH  036%=      5-min Rain = 0
KMC4 210404Z 13008KT 31/14 A2991 RMK A01 T03060139  RH  036%=      5-min Rain = 0
KMC4 210405Z 13008KT 31/14 A2991 RMK A01 T03060139  RH  036%=      5-min Rain = 0
KMC4 210406Z 13008KT 31/14 A2991 RMK A01 T03060139  RH  036%=      5-min Rain = 0
KMC4 210407Z 14007KT 31/14 A2991 RMK A01 T03050138  RH  036%=      5-min Rain = 0
KMC4 210408Z 13008KT 31/14 A2991 RMK A01 T03050139  RH  036%=      5-min Rain = 0
KMC4 210409Z 13007KT 30/14 A2991 RMK A01 T03040138  RH  036%=      5-min Rain = 0
KMC4 210410Z 14007KT 30/14 A2991 RMK A01 T03040137  RH  036%=      5-min Rain = 0
KMC4 210411Z 14008KT 30/14 A2991 RMK A01 T03040137  RH  036%=      5-min Rain = 0
KMC4 210412Z 14008KT 30/14 A2991 RMK A01 T03040136  RH  036%=      5-min Rain = 0
KMC4 210413Z 14010KT 30/14 A2991 RMK A01 T03040135  RH  036%=      5-min Rain = 0
KMC4 210414Z 14008KT 31/14 A2991 RMK A01 T03050135  RH  035%=      5-min Rain = 0
KMC4 210415Z 14010KT 31/13 A2991 RMK A01 T03050134  RH  035%=      5-min Rain = 0
KMC4 210416Z 14011KT 31/13 A2991 RMK A01 T03060132  RH  035%=      5-min Rain = 0
KMC4 210417Z 14010KT 31/13 A2991 RMK A01 T03070132  RH  034%=      5-min Rain = 0
KMC4 210418Z 14009KT 31/13 A2991 RMK A01 T03070131  RH  034%=      5-min Rain = 0
KMC4 210419Z 14010KT 31/13 A2991 RMK A01 T03070131  RH  034%=      5-min Rain = 0
KMC4 210420Z 14010KT 31/13 A2991 RMK A01 T03070130  RH  034%=      5-min Rain = 0
KMC4 210421Z 14011KT 31/13 A2991 RMK A01 T03070129  RH  034%=      5-min Rain = 0
KMC4 210422Z 14010KT 31/13 A2991 RMK A01 T03070129  RH  034%=      5-min Rain = 0
KMC4 210423Z 15010KT 31/13 A2991 RMK A01 T03070128  RH  034%=      5-min Rain = 0
KMC4 210424Z 14011KT 31/13 A2991 RMK A01 T03070128  RH  033%=      5-min Rain = 0
KMC4 210425Z 15010KT 31/13 A2991 RMK A01 T03080128  RH  033%=      5-min Rain = 0
KMC4 210426Z 14010KT 31/13 A2991 RMK A01 T03080127  RH  033%=      5-min Rain = 0
KMC4 210427Z 14009KT 31/13 A2991 RMK A01 T03070127  RH  033%=      5-min Rain = 0
KMC4 210428Z 15009KT 31/13 A2991 RMK A01 T03070127  RH  033%=      5-min Rain = 0
KMC4 210429Z 15009KT 31/13 A2991 RMK A01 T03070127  RH  033%=      5-min Rain = 0
KMC4 210430Z 15008KT 31/13 A2991 RMK A01 T03070127  RH  033%=      5-min Rain = 0
KMC4 210431Z 15009KT 31/13 A2991 RMK A01 T03060127  RH  033%=      5-min Rain = 0
KMC4 210432Z 15007KT 31/13 A2991 RMK A01 T03060126  RH  033%=      5-min Rain = 0
KMC4 210433Z 15008KT 31/13 A2991 RMK A01 T03060126  RH  033%=      5-min Rain = 0
KMC4 210434Z 15008KT 31/13 A2991 RMK A01 T03060126  RH  033%=      5-min Rain = 0
KMC4 210435Z 15008KT 31/13 A2991 RMK A01 T03060126  RH  033%=      5-min Rain = 0
KMC4 210436Z 15009KT 31/13 A2991 RMK A01 T03050125  RH  033%=      5-min Rain = 0
KMC4 210437Z 15008KT 31/13 A2991 RMK A01 T03050125  RH  033%=      5-min Rain = 0
KMC4 210438Z 15009KT 31/13 A2991 RMK A01 T03050125  RH  033%=      5-min Rain = 0
KMC4 210439Z 15009KT 31/12 A2991 RMK A01 T03050124  RH  033%=      5-min Rain = 0
KMC4 210440Z 15009KT 31/12 A2991 RMK A01 T03050123  RH  033%=      5-min Rain = 0
KMC4 210441Z 14008KT 31/12 A2991 RMK A01 T03050123  RH  033%=      5-min Rain = 0
KMC4 210442Z 15009KT 31/12 A2991 RMK A01 T03050123  RH  033%=      5-min Rain = 0
KMC4 210443Z 15009KT 31/12 A2991 RMK A01 T03050123  RH  033%=      5-min Rain = 0
KMC4 210444Z 15010KT 31/12 A2991 RMK A01 T03050122  RH  033%=      5-min Rain = 0
KMC4 210445Z 15009KT 31/12 A2991 RMK A01 T03050121  RH  032%=      5-min Rain = 0
KMC4 210446Z 15008KT 31/12 A2991 RMK A01 T03050122  RH  032%=      5-min Rain = 0
KMC4 210447Z 14010KT 31/12 A2991 RMK A01 T03050121  RH  032%=      5-min Rain = 0
KMC4 210448Z 15008KT 31/12 A2991 RMK A01 T03050121  RH  032%=      5-min Rain = 0
KMC4 210449Z 15008KT 31/12 A2991 RMK A01 T03050121  RH  032%=      5-min Rain = 0
KMC4 210450Z 15009KT 31/12 A2991 RMK A01 T03050120  RH  032%=      5-min Rain = 0
KMC4 210451Z 15010KT 31/12 A2991 RMK A01 T03050120  RH  032%=      5-min Rain = 0
KMC4 210452Z 15009KT 31/12 A2991 RMK A01 T03050120  RH  032%=      5-min Rain = 0
KMC4 210453Z 15008KT 31/12 A2991 RMK A01 T03050120  RH  032%=      5-min Rain = 0
KMC4 210454Z 15008KT 30/12 A2991 RMK A01 T03040119  RH  032%=      5-min Rain = 0
KMC4 210455Z 15008KT 30/12 A2991 RMK A01 T03040119  RH  032%=      5-min Rain = 0
KMC4 210456Z 15010KT 30/12 A2991 RMK A01 T03040119  RH  032%=      5-min Rain = 0
KMC4 210457Z 15008KT 30/12 A2991 RMK A01 T03030118  RH  032%=      5-min Rain = 0
KMC4 210458Z 14010KT 30/12 A2991 RMK A01 T03030118  RH  032%=      5-min Rain = 0
KMC4 210459Z 15010KT 30/12 A2991 RMK A01 T03040117  RH  032%=      5-min Rain = 0

Page generated in 0.1225 seconds.